Observation data for Panhandle on 08/14/2019      Previous  Date  Next       Current Mesonet Observations  Soil Data  Daily Summary Page  Observations in Plain Language
KPA1 140500Z 06005KT 21/19 A3023 RMK A01 T02130194  RH  089%=      5-min Rain = 0
KPA1 140501Z 06005KT 21/19 A3023 RMK A01 T02140194  RH  089%=      5-min Rain = 0
KPA1 140502Z 06005KT 21/19 A3023 RMK A01 T02130194  RH  089%=      5-min Rain = 0
KPA1 140503Z 06005KT 21/20 A3023 RMK A01 T02140195  RH  089%=      5-min Rain = 0
KPA1 140504Z 06005KT 21/20 A3023 RMK A01 T02130195  RH  089%=      5-min Rain = 0
KPA1 140505Z 06006KT 21/20 A3023 RMK A01 T02120195  RH  090%=      5-min Rain = 0
KPA1 140506Z 06005KT 21/20 A3023 RMK A01 T02120195  RH  090%=      5-min Rain = 0
KPA1 140507Z 06005KT 21/20 A3023 RMK A01 T02120195  RH  090%=      5-min Rain = 0
KPA1 140508Z 06005KT 21/20 A3023 RMK A01 T02120195  RH  090%=      5-min Rain = 0
KPA1 140509Z 06005KT 21/20 A3023 RMK A01 T02110195  RH  091%=      5-min Rain = 0
KPA1 140510Z 06005KT 21/20 A3023 RMK A01 T02110195  RH  091%=      5-min Rain = 0
KPA1 140519Z 08007KT 21/19 A3022 RMK A01 T02110194  RH  090%=      5-min Rain = 0
KPA1 140520Z 08007KT 21/19 A3022 RMK A01 T02110194  RH  090%=      5-min Rain = 0
KPA1 140521Z 08007KT 21/19 A3022 RMK A01 T02120194  RH  089%=      5-min Rain = 0
KPA1 140522Z 07006KT 21/19 A3022 RMK A01 T02130194  RH  089%=      5-min Rain = 0
KPA1 140523Z 08006KT 21/19 A3022 RMK A01 T02130194  RH  088%=      5-min Rain = 0
KPA1 140524Z 08006KT 21/19 A3022 RMK A01 T02130193  RH  088%=      5-min Rain = 0
KPA1 140525Z 08006KT 21/19 A3022 RMK A01 T02130193  RH  088%=      5-min Rain = 0
KPA1 140526Z 08006KT 21/19 A3022 RMK A01 T02130193  RH  088%=      5-min Rain = 0
KPA1 140527Z 09006KT 21/19 A3022 RMK A01 T02140193  RH  088%=      5-min Rain = 0
KPA1 140528Z 09006KT 21/19 A3022 RMK A01 T02140193  RH  088%=      5-min Rain = 0
KPA1 140529Z 10006KT 21/19 A3022 RMK A01 T02140193  RH  088%=      5-min Rain = 0
KPA1 140530Z 10006KT 21/19 A3022 RMK A01 T02140193  RH  088%=      5-min Rain = 0
KPA1 140531Z 10005KT 21/19 A3022 RMK A01 T02140194  RH  088%=      5-min Rain = 0
KPA1 140532Z 10006KT 21/19 A3022 RMK A01 T02130194  RH  089%=      5-min Rain = 0
KPA1 140533Z 09006KT 21/19 A3022 RMK A01 T02130194  RH  089%=      5-min Rain = 0
KPA1 140534Z 09006KT 21/19 A3022 RMK A01 T02130194  RH  089%=      5-min Rain = 0
KPA1 140535Z 09006KT 21/19 A3022 RMK A01 T02130193  RH  089%=      5-min Rain = 0
KPA1 140536Z 09006KT 21/19 A3022 RMK A01 T02130193  RH  089%=      5-min Rain = 0
KPA1 140537Z 09006KT 21/19 A3022 RMK A01 T02130193  RH  089%=      5-min Rain = 0
KPA1 140538Z 09007KT 21/19 A3022 RMK A01 T02130194  RH  089%=      5-min Rain = 0
KPA1 140539Z 08007KT 21/19 A3022 RMK A01 T02130193  RH  089%=      5-min Rain = 0
KPA1 140540Z 06009KT 21/19 A3023 RMK A01 T02130193  RH  089%=      5-min Rain = 0
KPA1 140541Z 04012KT 21/19 A3024 RMK A01 T02120194  RH  090%=      5-min Rain = 0
KPA1 140542Z 05012KT 21/20 A3024 RMK A01 T02110195  RH  090%=      5-min Rain = 0
KPA1 140543Z 04014G19KT 21/19 A3024 RMK A01 T02110194  RH  090%=      5-min Rain = 0
KPA1 140544Z 03017KT 21/19 A3024 RMK A01 T02110193  RH  089%=      5-min Rain = 0
KPA1 140545Z 04021G27KT 21/19 A3024 RMK A01 T02120187  RH  086%=      5-min Rain = 0
KPA1 140546Z 04019G24KT 21/18 A3024 RMK A01 T02110176  RH  080%=      5-min Rain = 0
KPA1 140547Z 05016KT 21/17 A3024 RMK A01 T02090173  RH  080%=      5-min Rain = 0
KPA1 140548Z 05016G23KT 21/17 A3024 RMK A01 T02080172  RH  080%=      5-min Rain = 0
KPA1 140549Z 05016KT 21/17 A3024 RMK A01 T02070169  RH  079%=      5-min Rain = 0
KPA1 140550Z 06015KT 21/17 A3024 RMK A01 T02050167  RH  079%=      5-min Rain = 0
KPA1 140551Z 06016KT 20/17 A3025 RMK A01 T02040167  RH  079%=      5-min Rain = 0
KPA1 140552Z 06021KT 20/16 A3025 RMK A01 T02030162  RH  078%=      5-min Rain = 0
KPA1 140553Z 05019KT 20/16 A3025 RMK A01 T02020159  RH  076%=      5-min Rain = 0
KPA1 140554Z 05018KT 20/16 A3025 RMK A01 T02010159  RH  076%=      5-min Rain = 0
KPA1 140555Z 05019KT 20/16 A3025 RMK A01 T02000157  RH  076%=      5-min Rain = 0
KPA1 140556Z 05020KT 20/16 A3025 RMK A01 T01990156  RH  076%=      5-min Rain = 0
KPA1 140557Z 05015KT 20/16 A3025 RMK A01 T01990155  RH  076%=      5-min Rain = 0
KPA1 140558Z 06015KT 20/16 A3025 RMK A01 T01980156  RH  077%=      5-min Rain = 0
KPA1 140559Z 05015KT 20/16 A3025 RMK A01 T01970155  RH  077%=      5-min Rain = 0
KPA1 140600Z 05014KT 20/16 A3025 RMK A01 T01960155  RH  077%=      5-min Rain = 0
KPA1 140601Z 06014KT 20/15 A3025 RMK A01 T01950154  RH  077%=      5-min Rain = 0
KPA1 140602Z 06012KT 19/15 A3025 RMK A01 T01940154  RH  077%=      5-min Rain = 0
KPA1 140603Z 06015G20KT 19/15 A3024 RMK A01 T01940154  RH  078%=      5-min Rain = 0
KPA1 140604Z 06015KT 19/15 A3024 RMK A01 T01930152  RH  077%=      5-min Rain = 0
KPA1 140605Z 06014KT 19/15 A3024 RMK A01 T01930151  RH  077%=      5-min Rain = 0
KPA1 140606Z 06013G18KT 19/15 A3024 RMK A01 T01930152  RH  077%=      5-min Rain = 0
KPA1 140607Z 06016KT 19/15 A3024 RMK A01 T01920152  RH  077%=      5-min Rain = 0
KPA1 140608Z 05014KT 19/15 A3024 RMK A01 T01920151  RH  077%=      5-min Rain = 0
KPA1 140609Z 05014KT 19/15 A3024 RMK A01 T01920151  RH  077%=      5-min Rain = 0
KPA1 140610Z 05012KT 19/15 A3024 RMK A01 T01920151  RH  077%=      5-min Rain = 0
KPA1 140611Z 05014KT 19/15 A3024 RMK A01 T01920151  RH  077%=      5-min Rain = 0
KPA1 140612Z 05012KT 19/15 A3024 RMK A01 T01910150  RH  077%=      5-min Rain = 0
KPA1 140613Z 05013KT 19/15 A3024 RMK A01 T01910151  RH  077%=      5-min Rain = 0
KPA1 140614Z 05012KT 19/15 A3024 RMK A01 T01910151  RH  077%=      5-min Rain = 0
KPA1 140615Z 06012KT 19/15 A3024 RMK A01 T01900150  RH  077%=      5-min Rain = 0
KPA1 140616Z 06010KT 19/15 A3024 RMK A01 T01900150  RH  077%=      5-min Rain = 0
KPA1 140617Z 06010KT 19/15 A3024 RMK A01 T01900150  RH  078%=      5-min Rain = 0
KPA1 140618Z 05011KT 19/15 A3024 RMK A01 T01900150  RH  078%=      5-min Rain = 0
KPA1 140619Z 05010KT 19/15 A3024 RMK A01 T01890150  RH  078%=      5-min Rain = 0
KPA1 140620Z 05011KT 19/15 A3024 RMK A01 T01890150  RH  078%=      5-min Rain = 0
KPA1 140621Z 05012KT 19/15 A3024 RMK A01 T01880149  RH  078%=      5-min Rain = 0
KPA1 140622Z 04012KT 19/15 A3025 RMK A01 T01890149  RH  078%=      5-min Rain = 0
KPA1 140623Z 04012KT 19/15 A3025 RMK A01 T01880150  RH  078%=      5-min Rain = 0
KPA1 140624Z 04013KT 19/15 A3025 RMK A01 T01880149  RH  078%=      5-min Rain = 0
KPA1 140625Z 05013KT 19/15 A3025 RMK A01 T01880148  RH  077%=      5-min Rain = 0
KPA1 140626Z 05014KT 19/15 A3025 RMK A01 T01880148  RH  077%=      5-min Rain = 0
KPA1 140627Z 05015KT 19/15 A3025 RMK A01 T01880147  RH  077%=      5-min Rain = 0
KPA1 140628Z 05014KT 19/15 A3025 RMK A01 T01880147  RH  077%=      5-min Rain = 0
KPA1 140629Z 05013KT 19/15 A3025 RMK A01 T01870146  RH  077%=      5-min Rain = 0
KPA1 140630Z 06015G20KT 19/15 A3024 RMK A01 T01870146  RH  077%=      5-min Rain = 0
KPA1 140631Z 05013KT 19/15 A3024 RMK A01 T01870145  RH  077%=      5-min Rain = 0
KPA1 140632Z 06013G18KT 19/15 A3024 RMK A01 T01870146  RH  077%=      5-min Rain = 0
KPA1 140633Z 06016KT 19/15 A3024 RMK A01 T01860145  RH  077%=      5-min Rain = 0
KPA1 140634Z 06015KT 19/14 A3024 RMK A01 T01860144  RH  076%=      5-min Rain = 0
KPA1 140635Z 05014KT 19/14 A3024 RMK A01 T01860144  RH  076%=      5-min Rain = 0
KPA1 140636Z 05015G20KT 19/14 A3024 RMK A01 T01860144  RH  076%=      5-min Rain = 0
KPA1 140637Z 05014KT 19/14 A3024 RMK A01 T01860143  RH  076%=      5-min Rain = 0
KPA1 140638Z 06016KT 19/14 A3024 RMK A01 T01860143  RH  076%=      5-min Rain = 0
KPA1 140639Z 05013KT 19/14 A3024 RMK A01 T01860143  RH  076%=      5-min Rain = 0
KPA1 140640Z 05013KT 19/14 A3024 RMK A01 T01860143  RH  076%=      5-min Rain = 0
KPA1 140641Z 05011KT 19/14 A3024 RMK A01 T01860143  RH  076%=      5-min Rain = 0
KPA1 140642Z 06011KT 19/14 A3024 RMK A01 T01850143  RH  077%=      5-min Rain = 0
KPA1 140643Z 05011KT 19/14 A3024 RMK A01 T01850144  RH  077%=      5-min Rain = 0
KPA1 140644Z 05012KT 18/14 A3024 RMK A01 T01840143  RH  077%=      5-min Rain = 0
KPA1 140645Z 05011KT 18/14 A3024 RMK A01 T01840143  RH  077%=      5-min Rain = 0
KPA1 140646Z 05012KT 18/14 A3024 RMK A01 T01840143  RH  077%=      5-min Rain = 0
KPA1 140647Z 05012KT 18/14 A3024 RMK A01 T01830142  RH  077%=      5-min Rain = 0
KPA1 140648Z 05012KT 18/14 A3024 RMK A01 T01840141  RH  076%=      5-min Rain = 0
KPA1 140649Z 05010KT 18/14 A3024 RMK A01 T01830141  RH  076%=      5-min Rain = 0
KPA1 140650Z 05009KT 18/14 A3024 RMK A01 T01840142  RH  077%=      5-min Rain = 0
KPA1 140651Z 05010KT 18/14 A3025 RMK A01 T01830142  RH  077%=      5-min Rain = 0
KPA1 140652Z 05010KT 18/14 A3025 RMK A01 T01830142  RH  077%=      5-min Rain = 0
KPA1 140653Z 05011KT 18/14 A3025 RMK A01 T01830142  RH  077%=      5-min Rain = 0
KPA1 140654Z 05010KT 18/14 A3025 RMK A01 T01830142  RH  077%=      5-min Rain = 0
KPA1 140655Z 05009KT 18/14 A3025 RMK A01 T01820142  RH  077%=      5-min Rain = 0
KPA1 140656Z 04010KT 18/14 A3025 RMK A01 T01820141  RH  077%=      5-min Rain = 0
KPA1 140657Z 05011KT 18/14 A3025 RMK A01 T01810141  RH  077%=      5-min Rain = 0
KPA1 140658Z 05011KT 18/14 A3025 RMK A01 T01810139  RH  076%=      5-min Rain = 0
KPA1 140659Z 05010KT 18/14 A3025 RMK A01 T01820138  RH  076%=      5-min Rain = 0
KPA1 140700Z 05010KT 18/14 A3025 RMK A01 T01820139  RH  076%=      5-min Rain = 0
KPA1 140701Z 05010KT 18/14 A3025 RMK A01 T01820139  RH  076%=      5-min Rain = 0
KPA1 140702Z 05011KT 18/14 A3025 RMK A01 T01820139  RH  076%=      5-min Rain = 0
KPA1 140703Z 04009KT 18/14 A3025 RMK A01 T01810139  RH  076%=      5-min Rain = 0
KPA1 140704Z 05011KT 18/14 A3025 RMK A01 T01810139  RH  077%=      5-min Rain = 0
KPA1 140705Z 05010KT 18/14 A3025 RMK A01 T01800138  RH  076%=      5-min Rain = 0
KPA1 140706Z 05010KT 18/14 A3025 RMK A01 T01800138  RH  076%=      5-min Rain = 0
KPA1 140707Z 05010KT 18/14 A3025 RMK A01 T01800138  RH  076%=      5-min Rain = 0
KPA1 140708Z 05011KT 18/14 A3025 RMK A01 T01790137  RH  076%=      5-min Rain = 0
KPA1 140709Z 05011KT 18/14 A3024 RMK A01 T01800137  RH  076%=      5-min Rain = 0
KPA1 140710Z 05011KT 18/14 A3024 RMK A01 T01790137  RH  076%=      5-min Rain = 0
KPA1 140711Z 05011KT 18/14 A3024 RMK A01 T01790137  RH  076%=      5-min Rain = 0
KPA1 140712Z 05010KT 18/14 A3024 RMK A01 T01790137  RH  076%=      5-min Rain = 0
KPA1 140713Z 05010KT 18/14 A3024 RMK A01 T01790137  RH  076%=      5-min Rain = 0
KPA1 140714Z 05010KT 18/14 A3024 RMK A01 T01780137  RH  077%=      5-min Rain = 0
KPA1 140715Z 05009KT 18/14 A3024 RMK A01 T01780137  RH  077%=      5-min Rain = 0
KPA1 140716Z 05010KT 18/14 A3024 RMK A01 T01780137  RH  077%=      5-min Rain = 0
KPA1 140717Z 04009KT 18/14 A3024 RMK A01 T01770138  RH  078%=      5-min Rain = 0
KPA1 140718Z 05009KT 18/14 A3024 RMK A01 T01770137  RH  078%=      5-min Rain = 0
KPA1 140719Z 04009KT 18/14 A3024 RMK A01 T01770138  RH  078%=      5-min Rain = 0
KPA1 140720Z 05009KT 18/14 A3024 RMK A01 T01760137  RH  078%=      5-min Rain = 0
KPA1 140721Z 05008KT 18/14 A3024 RMK A01 T01760137  RH  078%=      5-min Rain = 0
KPA1 140722Z 04008KT 18/14 A3024 RMK A01 T01760137  RH  078%=      5-min Rain = 0
KPA1 140723Z 04009KT 18/14 A3024 RMK A01 T01760137  RH  078%=      5-min Rain = 0
KPA1 140724Z 04009KT 18/14 A3024 RMK A01 T01760137  RH  078%=      5-min Rain = 0
KPA1 140725Z 04009KT 18/14 A3024 RMK A01 T01760136  RH  078%=      5-min Rain = 0
KPA1 140726Z 04009KT 18/14 A3024 RMK A01 T01760136  RH  077%=      5-min Rain = 0
KPA1 140727Z 04007KT 18/14 A3024 RMK A01 T01760137  RH  078%=      5-min Rain = 0
KPA1 140728Z 04007KT 18/14 A3024 RMK A01 T01760138  RH  079%=      5-min Rain = 0
KPA1 140729Z 05007KT 18/14 A3024 RMK A01 T01750137  RH  079%=      5-min Rain = 0
KPA1 140730Z 05007KT 18/14 A3024 RMK A01 T01750138  RH  079%=      5-min Rain = 0
KPA1 140731Z 05008KT 17/14 A3023 RMK A01 T01740138  RH  079%=      5-min Rain = 0
KPA1 140732Z 05007KT 17/14 A3023 RMK A01 T01740138  RH  079%=      5-min Rain = 0
KPA1 140733Z 05008KT 17/14 A3023 RMK A01 T01740138  RH  079%=      5-min Rain = 0
KPA1 140734Z 05009KT 17/14 A3023 RMK A01 T01740138  RH  079%=      5-min Rain = 0
KPA1 140735Z 06008KT 17/14 A3023 RMK A01 T01740137  RH  079%=      5-min Rain = 0
KPA1 140736Z 06008KT 17/14 A3023 RMK A01 T01740136  RH  078%=      5-min Rain = 0
KPA1 140737Z 06009KT 17/14 A3023 RMK A01 T01740136  RH  078%=      5-min Rain = 0
KPA1 140738Z 06008KT 17/14 A3023 RMK A01 T01740136  RH  078%=      5-min Rain = 0
KPA1 140739Z 06007KT 17/14 A3023 RMK A01 T01740136  RH  078%=      5-min Rain = 0
KPA1 140740Z 05007KT 17/14 A3023 RMK A01 T01740136  RH  078%=      5-min Rain = 0
KPA1 140741Z 05007KT 17/14 A3023 RMK A01 T01740136  RH  078%=      5-min Rain = 0
KPA1 140742Z 05009KT 18/14 A3023 RMK A01 T01750136  RH  078%=      5-min Rain = 0
KPA1 140743Z 05009KT 18/14 A3023 RMK A01 T01750135  RH  077%=      5-min Rain = 0
KPA1 140744Z 05009KT 18/14 A3023 RMK A01 T01750135  RH  077%=      5-min Rain = 0
KPA1 140745Z 05008KT 18/13 A3024 RMK A01 T01750134  RH  077%=      5-min Rain = 0
KPA1 140746Z 04008KT 18/14 A3024 RMK A01 T01750135  RH  077%=      5-min Rain = 0
KPA1 140747Z 04008KT 18/14 A3024 RMK A01 T01750135  RH  077%=      5-min Rain = 0
KPA1 140748Z 05008KT 18/14 A3023 RMK A01 T01750135  RH  077%=      5-min Rain = 0
KPA1 140749Z 04010KT 18/14 A3023 RMK A01 T01750135  RH  077%=      5-min Rain = 0
KPA1 140750Z 05010KT 18/13 A3023 RMK A01 T01750134  RH  077%=      5-min Rain = 0
KPA1 140751Z 05010KT 18/13 A3023 RMK A01 T01760134  RH  076%=      5-min Rain = 0
KPA1 140752Z 05010KT 18/13 A3023 RMK A01 T01760133  RH  076%=      5-min Rain = 0
KPA1 140753Z 05010KT 18/13 A3023 RMK A01 T01760133  RH  076%=      5-min Rain = 0
KPA1 140754Z 05009KT 18/13 A3023 RMK A01 T01770134  RH  076%=      5-min Rain = 0
KPA1 140755Z 06008KT 18/13 A3023 RMK A01 T01770134  RH  076%=      5-min Rain = 0
KPA1 140756Z 06009KT 18/14 A3023 RMK A01 T01760135  RH  077%=      5-min Rain = 0
KPA1 140757Z 05009KT 18/13 A3023 RMK A01 T01750134  RH  076%=      5-min Rain = 0
KPA1 140758Z 05009KT 18/13 A3023 RMK A01 T01750134  RH  077%=      5-min Rain = 0
KPA1 140759Z 05008KT 18/14 A3023 RMK A01 T01750135  RH  077%=      5-min Rain = 0
KPA1 140800Z 05008KT 18/13 A3023 RMK A01 T01750134  RH  077%=      5-min Rain = 0
KPA1 140801Z 05009KT 17/13 A3023 RMK A01 T01740134  RH  077%=      5-min Rain = 0
KPA1 140802Z 06009KT 17/13 A3023 RMK A01 T01740134  RH  077%=      5-min Rain = 0
KPA1 140803Z 05008KT 18/13 A3023 RMK A01 T01750134  RH  077%=      5-min Rain = 0
KPA1 140804Z 05009KT 18/13 A3023 RMK A01 T01750134  RH  077%=      5-min Rain = 0
KPA1 140805Z 05009KT 18/13 A3023 RMK A01 T01750133  RH  076%=      5-min Rain = 0
KPA1 140806Z 05009KT 18/13 A3023 RMK A01 T01750133  RH  076%=      5-min Rain = 0
KPA1 140807Z 04010KT 18/13 A3023 RMK A01 T01760133  RH  076%=      5-min Rain = 0
KPA1 140808Z 05009KT 18/13 A3023 RMK A01 T01760133  RH  076%=      5-min Rain = 0
KPA1 140809Z 05009KT 18/13 A3023 RMK A01 T01760133  RH  076%=      5-min Rain = 0
KPA1 140810Z 05009KT 18/13 A3023 RMK A01 T01760134  RH  076%=      5-min Rain = 0
KPA1 140811Z 05009KT 18/13 A3023 RMK A01 T01760134  RH  076%=      5-min Rain = 0
KPA1 140812Z 05008KT 18/13 A3023 RMK A01 T01750133  RH  076%=      5-min Rain = 0
KPA1 140813Z 05008KT 18/13 A3023 RMK A01 T01750134  RH  077%=      5-min Rain = 0
KPA1 140814Z 05008KT 18/14 A3023 RMK A01 T01750135  RH  077%=      5-min Rain = 0
KPA1 140815Z 04008KT 17/13 A3022 RMK A01 T01740134  RH  078%=      5-min Rain = 0
KPA1 140816Z 05008KT 17/14 A3022 RMK A01 T01740135  RH  078%=      5-min Rain = 0
KPA1 140817Z 05008KT 17/14 A3022 RMK A01 T01730135  RH  078%=      5-min Rain = 0
KPA1 140818Z 05008KT 17/13 A3022 RMK A01 T01730134  RH  078%=      5-min Rain = 0
KPA1 140819Z 05007KT 17/13 A3022 RMK A01 T01730134  RH  078%=      5-min Rain = 0
KPA1 140820Z 05007KT 17/14 A3022 RMK A01 T01730135  RH  078%=      5-min Rain = 0
KPA1 140821Z 06007KT 17/14 A3022 RMK A01 T01730135  RH  079%=      5-min Rain = 0
KPA1 140822Z 06008KT 17/14 A3022 RMK A01 T01720135  RH  079%=      5-min Rain = 0
KPA1 140823Z 06008KT 17/14 A3022 RMK A01 T01720135  RH  079%=      5-min Rain = 0
KPA1 140824Z 06007KT 17/14 A3022 RMK A01 T01720135  RH  079%=      5-min Rain = 0
KPA1 140825Z 06007KT 17/14 A3022 RMK A01 T01720135  RH  079%=      5-min Rain = 0
KPA1 140826Z 06007KT 17/14 A3022 RMK A01 T01710135  RH  079%=      5-min Rain = 0
KPA1 140827Z 06008KT 17/14 A3022 RMK A01 T01710136  RH  080%=      5-min Rain = 0
KPA1 140828Z 06008KT 17/14 A3022 RMK A01 T01710136  RH  080%=      5-min Rain = 0
KPA1 140829Z 06007KT 17/14 A3022 RMK A01 T01710136  RH  080%=      5-min Rain = 0
KPA1 140830Z 06008KT 17/14 A3022 RMK A01 T01710136  RH  080%=      5-min Rain = 0
KPA1 140831Z 06008KT 17/14 A3022 RMK A01 T01710135  RH  079%=      5-min Rain = 0
KPA1 140832Z 06008KT 17/14 A3022 RMK A01 T01710136  RH  080%=      5-min Rain = 0
KPA1 140833Z 06008KT 17/14 A3022 RMK A01 T01710136  RH  080%=      5-min Rain = 0
KPA1 140834Z 05009KT 17/14 A3022 RMK A01 T01710135  RH  079%=      5-min Rain = 0
KPA1 140835Z 05007KT 17/14 A3022 RMK A01 T01710135  RH  079%=      5-min Rain = 0
KPA1 140836Z 05008KT 17/14 A3023 RMK A01 T01710136  RH  080%=      5-min Rain = 0
KPA1 140837Z 05008KT 17/14 A3023 RMK A01 T01710136  RH  080%=      5-min Rain = 0
KPA1 140838Z 05007KT 17/14 A3023 RMK A01 T01710136  RH  080%=      5-min Rain = 0
KPA1 140839Z 04007KT 17/14 A3023 RMK A01 T01710136  RH  080%=      5-min Rain = 0
KPA1 140840Z 04007KT 17/14 A3023 RMK A01 T01710137  RH  080%=      5-min Rain = 0
KPA1 140841Z 04007KT 17/14 A3023 RMK A01 T01700137  RH  081%=      5-min Rain = 0
KPA1 140842Z 04008KT 17/14 A3023 RMK A01 T01700137  RH  081%=      5-min Rain = 0
KPA1 140843Z 03007KT 17/14 A3023 RMK A01 T01700136  RH  081%=      5-min Rain = 0
KPA1 140844Z 04006KT 17/14 A3024 RMK A01 T01700136  RH  080%=      5-min Rain = 0
KPA1 140845Z 04007KT 17/14 A3024 RMK A01 T01700136  RH  081%=      5-min Rain = 0
KPA1 140846Z 04007KT 17/14 A3024 RMK A01 T01700137  RH  081%=      5-min Rain = 0
KPA1 140847Z 03007KT 17/14 A3024 RMK A01 T01700137  RH  081%=      5-min Rain = 0
KPA1 140848Z 04007KT 17/14 A3024 RMK A01 T01700137  RH  081%=      5-min Rain = 0
KPA1 140849Z 04008KT 17/14 A3024 RMK A01 T01700137  RH  081%=      5-min Rain = 0
KPA1 140850Z 04007KT 17/14 A3024 RMK A01 T01700137  RH  081%=      5-min Rain = 0
KPA1 140851Z 03008KT 17/14 A3024 RMK A01 T01700137  RH  081%=      5-min Rain = 0
KPA1 140852Z 04007KT 17/14 A3024 RMK A01 T01700137  RH  081%=      5-min Rain = 0
KPA1 140853Z 03007KT 17/14 A3024 RMK A01 T01700137  RH  081%=      5-min Rain = 0
KPA1 140854Z 04006KT 17/14 A3024 RMK A01 T01700137  RH  081%=      5-min Rain = 0
KPA1 140855Z 04006KT 17/14 A3024 RMK A01 T01700137  RH  081%=      5-min Rain = 0
KPA1 140856Z 04007KT 17/14 A3024 RMK A01 T01690137  RH  081%=      5-min Rain = 0
KPA1 140857Z 04006KT 17/14 A3024 RMK A01 T01690137  RH  081%=      5-min Rain = 0
KPA1 140858Z 04006KT 17/14 A3024 RMK A01 T01690137  RH  081%=      5-min Rain = 0
KPA1 140859Z 04006KT 17/14 A3024 RMK A01 T01690137  RH  082%=      5-min Rain = 0
KPA1 140900Z 03006KT 17/14 A3024 RMK A01 T01680137  RH  082%=      5-min Rain = 0
KPA1 140901Z 03005KT 17/14 A3024 RMK A01 T01680137  RH  082%=      5-min Rain = 0
KPA1 140902Z 02006KT 17/14 A3024 RMK A01 T01670138  RH  082%=      5-min Rain = 0
KPA1 140903Z 02006KT 17/14 A3024 RMK A01 T01680138  RH  082%=      5-min Rain = 0
KPA1 140904Z 02007KT 17/14 A3025 RMK A01 T01680137  RH  082%=      5-min Rain = 0
KPA1 140905Z 02006KT 17/14 A3025 RMK A01 T01680137  RH  082%=      5-min Rain = 0
KPA1 140906Z 02007KT 17/14 A3025 RMK A01 T01680136  RH  081%=      5-min Rain = 0
KPA1 140907Z 03006KT 17/14 A3025 RMK A01 T01690136  RH  081%=      5-min Rain = 0
KPA1 140908Z 02007KT 17/14 A3025 RMK A01 T01700136  RH  081%=      5-min Rain = 0
KPA1 140909Z 02006KT 17/14 A3025 RMK A01 T01700137  RH  081%=      5-min Rain = 0
KPA1 140910Z 02006KT 17/14 A3025 RMK A01 T01700137  RH  081%=      5-min Rain = 0
KPA1 140911Z 02005KT 17/14 A3025 RMK A01 T01700137  RH  081%=      5-min Rain = 0
KPA1 140912Z 02005KT 17/14 A3025 RMK A01 T01700137  RH  081%=      5-min Rain = 0
KPA1 140913Z 03006KT 17/14 A3025 RMK A01 T01700137  RH  081%=      5-min Rain = 0
KPA1 140914Z 03005KT 17/14 A3025 RMK A01 T01700137  RH  081%=      5-min Rain = 0
KPA1 140915Z 02004KT 17/14 A3025 RMK A01 T01700136  RH  081%=      5-min Rain = 0
KPA1 140916Z 01005KT 17/14 A3025 RMK A01 T01700137  RH  081%=      5-min Rain = 0
KPA1 140917Z 01005KT 17/14 A3025 RMK A01 T01700136  RH  081%=      5-min Rain = 0
KPA1 140918Z 00005KT 17/14 A3025 RMK A01 T01700136  RH  080%=      5-min Rain = 0
KPA1 140919Z 35005KT 17/14 A3025 RMK A01 T01710136  RH  080%=      5-min Rain = 0
KPA1 140920Z 35006KT 17/14 A3025 RMK A01 T01710136  RH  080%=      5-min Rain = 0
KPA1 140921Z 35005KT 17/14 A3025 RMK A01 T01720136  RH  080%=      5-min Rain = 0
KPA1 140922Z 35005KT 17/14 A3025 RMK A01 T01720137  RH  080%=      5-min Rain = 0
KPA1 140923Z 34005KT 17/14 A3025 RMK A01 T01720137  RH  080%=      5-min Rain = 0
KPA1 140924Z 34005KT 17/14 A3025 RMK A01 T01720137  RH  080%=      5-min Rain = 0
KPA1 140925Z 34005KT 17/14 A3025 RMK A01 T01710137  RH  080%=      5-min Rain = 0
KPA1 140926Z 34005KT 17/14 A3025 RMK A01 T01710137  RH  080%=      5-min Rain = 0
KPA1 140927Z 34005KT 17/14 A3025 RMK A01 T01710137  RH  081%=      5-min Rain = 0
KPA1 140928Z 34005KT 17/14 A3025 RMK A01 T01700137  RH  081%=      5-min Rain = 0
KPA1 140929Z 34004KT 17/14 A3025 RMK A01 T01700137  RH  081%=      5-min Rain = 0
KPA1 140930Z 34004KT 17/14 A3025 RMK A01 T01700137  RH  081%=      5-min Rain = 0
KPA1 140931Z 33005KT 17/14 A3025 RMK A01 T01690137  RH  081%=      5-min Rain = 0
KPA1 140932Z 33006KT 17/14 A3025 RMK A01 T01680138  RH  082%=      5-min Rain = 0
KPA1 140933Z 33006KT 17/14 A3025 RMK A01 T01680138  RH  083%=      5-min Rain = 0
KPA1 140934Z 33005KT 17/14 A3025 RMK A01 T01680138  RH  083%=      5-min Rain = 0
KPA1 140935Z 33005KT 17/14 A3025 RMK A01 T01670138  RH  083%=      5-min Rain = 0
KPA1 140936Z 34005KT 17/14 A3025 RMK A01 T01660138  RH  083%=      5-min Rain = 0
KPA1 140937Z 34005KT 17/14 A3025 RMK A01 T01660138  RH  084%=      5-min Rain = 0
KPA1 140938Z 35005KT 17/14 A3025 RMK A01 T01660138  RH  084%=      5-min Rain = 0
KPA1 140939Z 35005KT 17/14 A3025 RMK A01 T01660138  RH  084%=      5-min Rain = 0
KPA1 140940Z 35004KT 17/14 A3025 RMK A01 T01660137  RH  083%=      5-min Rain = 0
KPA1 140941Z 36005KT 17/14 A3025 RMK A01 T01660138  RH  083%=      5-min Rain = 0
KPA1 140942Z 35005KT 17/14 A3025 RMK A01 T01660138  RH  083%=      5-min Rain = 0
KPA1 140943Z 36006KT 17/14 A3025 RMK A01 T01660138  RH  083%=      5-min Rain = 0
KPA1 140944Z 36007KT 17/14 A3025 RMK A01 T01670138  RH  083%=      5-min Rain = 0
KPA1 140945Z 35007KT 17/14 A3025 RMK A01 T01670138  RH  083%=      5-min Rain = 0
KPA1 140946Z 35007KT 17/14 A3025 RMK A01 T01670138  RH  083%=      5-min Rain = 0
KPA1 140947Z 35008KT 17/14 A3025 RMK A01 T01670139  RH  083%=      5-min Rain = 0
KPA1 140948Z 35009KT 17/14 A3025 RMK A01 T01680138  RH  082%=      5-min Rain = 0
KPA1 140949Z 35009KT 17/14 A3025 RMK A01 T01680137  RH  082%=      5-min Rain = 0
KPA1 140950Z 35011KT 17/14 A3025 RMK A01 T01690137  RH  081%=      5-min Rain = 0
KPA1 140951Z 35010KT 17/14 A3025 RMK A01 T01690137  RH  081%=      5-min Rain = 0
KPA1 140952Z 35010KT 17/14 A3025 RMK A01 T01690136  RH  081%=      5-min Rain = 0
KPA1 140953Z 35010KT 17/14 A3025 RMK A01 T01700136  RH  081%=      5-min Rain = 0
KPA1 140954Z 35011KT 17/14 A3025 RMK A01 T01700137  RH  081%=      5-min Rain = 0
KPA1 140955Z 35011KT 17/14 A3026 RMK A01 T01690137  RH  081%=      5-min Rain = 0
KPA1 140956Z 34012KT 17/14 A3026 RMK A01 T01690137  RH  081%=      5-min Rain = 0
KPA1 140957Z 35011KT 17/14 A3026 RMK A01 T01690136  RH  081%=      5-min Rain = 0
KPA1 140958Z 34010KT 17/14 A3026 RMK A01 T01690135  RH  080%=      5-min Rain = 0
KPA1 140959Z 34009KT 17/14 A3026 RMK A01 T01700137  RH  081%=      5-min Rain = 0
KPA1 141000Z 34010KT 17/14 A3026 RMK A01 T01690136  RH  081%=      5-min Rain = 0
KPA1 141001Z 34011KT 17/14 A3026 RMK A01 T01690136  RH  081%=      5-min Rain = 0
KPA1 141002Z 34011KT 17/14 A3026 RMK A01 T01680136  RH  081%=      5-min Rain = 0
KPA1 141003Z 34011KT 17/14 A3026 RMK A01 T01680137  RH  081%=      5-min Rain = 0
KPA1 141004Z 34009KT 17/14 A3026 RMK A01 T01680136  RH  081%=      5-min Rain = 0
KPA1 141005Z 34009KT 17/14 A3026 RMK A01 T01680135  RH  081%=      5-min Rain = 0
KPA1 141006Z 33009KT 17/14 A3026 RMK A01 T01680135  RH  081%=      5-min Rain = 0
KPA1 141007Z 34008KT 17/14 A3026 RMK A01 T01680135  RH  081%=      5-min Rain = 0
KPA1 141008Z 34008KT 17/14 A3026 RMK A01 T01680136  RH  081%=      5-min Rain = 0
KPA1 141009Z 33009KT 17/14 A3026 RMK A01 T01680135  RH  081%=      5-min Rain = 0
KPA1 141010Z 34010KT 17/14 A3026 RMK A01 T01690136  RH  081%=      5-min Rain = 0
KPA1 141011Z 34011KT 17/14 A3027 RMK A01 T01690136  RH  081%=      5-min Rain = 0
KPA1 141012Z 34015KT 17/14 A3027 RMK A01 T01690136  RH  081%=      5-min Rain = 0
KPA1 141013Z 35014KT 17/14 A3028 RMK A01 T01690135  RH  081%=      5-min Rain = 0
KPA1 141014Z 34013KT 17/14 A3027 RMK A01 T01690135  RH  080%=      5-min Rain = 0
KPA1 141015Z 35012KT 17/13 A3027 RMK A01 T01690134  RH  080%=      5-min Rain = 0
KPA1 141016Z 35013KT 17/13 A3027 RMK A01 T01700134  RH  079%=      5-min Rain = 0
KPA1 141017Z 35015KT 17/14 A3028 RMK A01 T01700135  RH  080%=      5-min Rain = 0
KPA1 141018Z 35015KT 17/14 A3028 RMK A01 T01700135  RH  080%=      5-min Rain = 0
KPA1 141019Z 35014G19KT 17/14 A3028 RMK A01 T01700135  RH  080%=      5-min Rain = 0
KPA1 141020Z 34009KT 17/14 A3027 RMK A01 T01700135  RH  079%=      5-min Rain = 0
KPA1 141021Z 35008KT 17/13 A3026 RMK A01 T01710134  RH  079%=      5-min Rain = 0
KPA1 141022Z 35009KT 17/14 A3026 RMK A01 T01710135  RH  079%=      5-min Rain = 0
KPA1 141023Z 35011KT 17/14 A3027 RMK A01 T01710136  RH  080%=      5-min Rain = 0
KPA1 141024Z 35012KT 17/14 A3028 RMK A01 T01710135  RH  080%=      5-min Rain = 0
KPA1 141025Z 35014KT 17/14 A3029 RMK A01 T01710136  RH  080%=      5-min Rain = 0
KPA1 141026Z 34012KT 17/14 A3028 RMK A01 T01710136  RH  080%=      5-min Rain = 0
KPA1 141027Z 35011KT 17/14 A3028 RMK A01 T01710135  RH  079%=      5-min Rain = 0
KPA1 141028Z 35012KT 17/14 A3027 RMK A01 T01710135  RH  079%=      5-min Rain = 0
KPA1 141029Z 36011KT 17/14 A3028 RMK A01 T01710135  RH  079%=      5-min Rain = 0
KPA1 141030Z 35010KT 17/14 A3028 RMK A01 T01720135  RH  079%=      5-min Rain = 0
KPA1 141031Z 34010KT 17/14 A3028 RMK A01 T01720136  RH  079%=      5-min Rain = 0
KPA1 141032Z 34015KT 17/14 A3028 RMK A01 T01720135  RH  079%=      5-min Rain = 0
KPA1 141033Z 34010KT 17/14 A3028 RMK A01 T01720136  RH  079%=      5-min Rain = 0
KPA1 141034Z 35009KT 17/14 A3027 RMK A01 T01720136  RH  079%=      5-min Rain = 0
KPA1 141035Z 36008KT 17/14 A3027 RMK A01 T01720135  RH  079%=      5-min Rain = 0
KPA1 141036Z 35012KT 17/14 A3028 RMK A01 T01720136  RH  079%=      5-min Rain = 0
KPA1 141037Z 34009KT 17/14 A3028 RMK A01 T01720136  RH  079%=      5-min Rain = 0
KPA1 141038Z 34009KT 17/14 A3028 RMK A01 T01720136  RH  079%=      5-min Rain = 0
KPA1 141039Z 34011KT 17/14 A3028 RMK A01 T01710136  RH  080%=      5-min Rain = 0
KPA1 141040Z 34010KT 17/14 A3028 RMK A01 T01720136  RH  080%=      5-min Rain = 0
KPA1 141041Z 35006KT 17/14 A3028 RMK A01 T01710136  RH  079%=      5-min Rain = 0
KPA1 141042Z 34007KT 17/14 A3027 RMK A01 T01720136  RH  079%=      5-min Rain = 0
KPA1 141043Z 34008KT 17/14 A3027 RMK A01 T01720136  RH  079%=      5-min Rain = 0
KPA1 141044Z 34007KT 17/14 A3027 RMK A01 T01720136  RH  079%=      5-min Rain = 0
KPA1 141045Z 34009KT 17/14 A3027 RMK A01 T01720137  RH  080%=      5-min Rain = 0
KPA1 141046Z 34010KT 17/14 A3027 RMK A01 T01720137  RH  080%=      5-min Rain = 0
KPA1 141047Z 34007KT 17/14 A3027 RMK A01 T01720136  RH  079%=      5-min Rain = 0
KPA1 141048Z 35007KT 17/14 A3027 RMK A01 T01720136  RH  079%=      5-min Rain = 0
KPA1 141049Z 35007KT 17/14 A3027 RMK A01 T01720136  RH  079%=      5-min Rain = 0
KPA1 141050Z 35006KT 17/14 A3027 RMK A01 T01720136  RH  080%=      5-min Rain = 0
KPA1 141051Z 35007KT 17/14 A3027 RMK A01 T01710137  RH  080%=      5-min Rain = 0
KPA1 141052Z 36006KT 17/14 A3027 RMK A01 T01720136  RH  079%=      5-min Rain = 0
KPA1 141053Z 35006KT 17/14 A3026 RMK A01 T01720136  RH  079%=      5-min Rain = 0
KPA1 141054Z 36005KT 17/14 A3026 RMK A01 T01720137  RH  080%=      5-min Rain = 0
KPA1 141055Z 35006KT 17/14 A3026 RMK A01 T01720137  RH  080%=      5-min Rain = 0
KPA1 141056Z 00005KT 17/14 A3026 RMK A01 T01720137  RH  080%=      5-min Rain = 0
KPA1 141057Z 00005KT 17/14 A3026 RMK A01 T01720137  RH  080%=      5-min Rain = 0
KPA1 141058Z 00003KT 17/14 A3026 RMK A01 T01710136  RH  080%=      5-min Rain = 0
KPA1 141059Z 01004KT 17/14 A3025 RMK A01 T01720137  RH  080%=      5-min Rain = 0
KPA1 141100Z 01005KT 17/14 A3025 RMK A01 T01710136  RH  080%=      5-min Rain = 0
KPA1 141101Z 00003KT 17/14 A3025 RMK A01 T01720136  RH  080%=      5-min Rain = 0
KPA1 141102Z 00003KT 17/14 A3025 RMK A01 T01710137  RH  080%=      5-min Rain = 0
KPA1 141103Z 36003KT 17/14 A3025 RMK A01 T01710137  RH  080%=      5-min Rain = 0
KPA1 141104Z 00003KT 17/14 A3025 RMK A01 T01710136  RH  080%=      5-min Rain = 0
KPA1 141105Z 35004KT 17/14 A3026 RMK A01 T01710137  RH  080%=      5-min Rain = 0
KPA1 141106Z 35003KT 17/14 A3026 RMK A01 T01710136  RH  080%=      5-min Rain = 0
KPA1 141107Z 33002KT 17/14 A3026 RMK A01 T01720136  RH  080%=      5-min Rain = 0
KPA1 141108Z 34002KT 17/14 A3026 RMK A01 T01720136  RH  080%=      5-min Rain = 0
KPA1 141109Z 33003KT 17/14 A3026 RMK A01 T01720135  RH  079%=      5-min Rain = 0
KPA1 141110Z 32003KT 17/14 A3026 RMK A01 T01720136  RH  079%=      5-min Rain = 0
KPA1 141111Z 31003KT 17/14 A3026 RMK A01 T01730138  RH  080%=      5-min Rain = 0
KPA1 141112Z 30003KT 17/14 A3026 RMK A01 T01720138  RH  080%=      5-min Rain = 0
KPA1 141113Z 31003KT 17/14 A3026 RMK A01 T01720139  RH  081%=      5-min Rain = 0
KPA1 141114Z 30002KT 17/14 A3026 RMK A01 T01710140  RH  082%=      5-min Rain = 0
KPA1 141115Z 30003KT 17/14 A3026 RMK A01 T01710139  RH  082%=      5-min Rain = 0
KPA1 141116Z 30003KT 17/14 A3026 RMK A01 T01710140  RH  082%=      5-min Rain = 0
KPA1 141117Z 29004KT 17/14 A3026 RMK A01 T01700140  RH  082%=      5-min Rain = 0
KPA1 141118Z 29005KT 17/14 A3026 RMK A01 T01700141  RH  083%=      5-min Rain = 0
KPA1 141119Z 29005KT 17/14 A3026 RMK A01 T01690141  RH  083%=      5-min Rain = 0
KPA1 141120Z 29005KT 17/14 A3026 RMK A01 T01680141  RH  084%=      5-min Rain = 0
KPA1 141121Z 29006KT 17/14 A3026 RMK A01 T01680142  RH  084%=      5-min Rain = 0
KPA1 141122Z 30007KT 17/14 A3026 RMK A01 T01680142  RH  085%=      5-min Rain = 0
KPA1 141123Z 29007KT 17/14 A3026 RMK A01 T01670141  RH  084%=      5-min Rain = 0
KPA1 141124Z 29007KT 17/14 A3026 RMK A01 T01680141  RH  084%=      5-min Rain = 0
KPA1 141125Z 29008KT 17/14 A3027 RMK A01 T01680141  RH  084%=      5-min Rain = 0
KPA1 141126Z 29007KT 17/14 A3027 RMK A01 T01680141  RH  084%=      5-min Rain = 0
KPA1 141127Z 29007KT 17/14 A3027 RMK A01 T01690141  RH  084%=      5-min Rain = 0
KPA1 141128Z 29007KT 17/14 A3027 RMK A01 T01680141  RH  084%=      5-min Rain = 0
KPA1 141129Z 29007KT 17/14 A3027 RMK A01 T01690142  RH  084%=      5-min Rain = 0
KPA1 141130Z 29007KT 17/14 A3027 RMK A01 T01680142  RH  085%=      5-min Rain = 0
KPA1 141131Z 28006KT 17/14 A3027 RMK A01 T01680143  RH  085%=      5-min Rain = 0
KPA1 141132Z 28006KT 17/14 A3027 RMK A01 T01680142  RH  085%=      5-min Rain = 0
KPA1 141133Z 28006KT 17/14 A3027 RMK A01 T01670143  RH  085%=      5-min Rain = 0
KPA1 141134Z 27005KT 17/14 A3026 RMK A01 T01670143  RH  085%=      5-min Rain = 0
KPA1 141135Z 26004KT 17/14 A3026 RMK A01 T01670143  RH  086%=      5-min Rain = 0
KPA1 141136Z 26004KT 17/14 A3026 RMK A01 T01670143  RH  086%=      5-min Rain = 0
KPA1 141137Z 26005KT 17/14 A3026 RMK A01 T01670143  RH  086%=      5-min Rain = 0
KPA1 141138Z 25005KT 17/14 A3026 RMK A01 T01670144  RH  086%=      5-min Rain = 0
KPA1 141139Z 26005KT 17/15 A3026 RMK A01 T01670145  RH  087%=      5-min Rain = 0
KPA1 141140Z 26006KT 17/14 A3026 RMK A01 T01660144  RH  087%=      5-min Rain = 0
KPA1 141141Z 26005KT 17/14 A3027 RMK A01 T01660144  RH  087%=      5-min Rain = 0
KPA1 141142Z 26004KT 17/15 A3027 RMK A01 T01660145  RH  087%=      5-min Rain = 0
KPA1 141143Z 25003KT 17/15 A3027 RMK A01 T01660145  RH  087%=      5-min Rain = 0
KPA1 141144Z 26003KT 17/14 A3026 RMK A01 T01660144  RH  087%=      5-min Rain = 0
KPA1 141145Z 26003KT 17/14 A3026 RMK A01 T01660144  RH  087%=      5-min Rain = 0
KPA1 141146Z 26003KT 17/15 A3026 RMK A01 T01660145  RH  087%=      5-min Rain = 0
KPA1 141147Z 26004KT 17/15 A3026 RMK A01 T01660145  RH  087%=      5-min Rain = 0
KPA1 141148Z 26004KT 17/15 A3027 RMK A01 T01660145  RH  087%=      5-min Rain = 0
KPA1 141149Z 26005KT 17/15 A3027 RMK A01 T01660145  RH  087%=      5-min Rain = 0
KPA1 141150Z 26004KT 17/15 A3026 RMK A01 T01670146  RH  087%=      5-min Rain = 0
KPA1 141151Z 26004KT 17/15 A3026 RMK A01 T01670145  RH  087%=      5-min Rain = 0
KPA1 141152Z 25004KT 17/15 A3026 RMK A01 T01670145  RH  087%=      5-min Rain = 0
KPA1 141153Z 25004KT 17/15 A3026 RMK A01 T01670145  RH  087%=      5-min Rain = 0
KPA1 141154Z 26004KT 17/15 A3026 RMK A01 T01670145  RH  087%=      5-min Rain = 0
KPA1 141155Z 26004KT 17/15 A3026 RMK A01 T01670145  RH  087%=      5-min Rain = 0
KPA1 141156Z 26004KT 17/15 A3026 RMK A01 T01670146  RH  088%=      5-min Rain = 0
KPA1 141157Z 26004KT 17/15 A3026 RMK A01 T01660146  RH  088%=      5-min Rain = 0
KPA1 141158Z 27003KT 17/15 A3026 RMK A01 T01670147  RH  088%=      5-min Rain = 0
KPA1 141159Z 26003KT 17/15 A3026 RMK A01 T01660146  RH  088%=      5-min Rain = 0
KPA1 141200Z 26003KT 17/15 A3026 RMK A01 T01670147  RH  088%=      5-min Rain = 0
KPA1 141201Z 27002KT 17/15 A3026 RMK A01 T01670146  RH  087%=      5-min Rain = 0
KPA1 141202Z 27002KT 17/15 A3026 RMK A01 T01670146  RH  087%=      5-min Rain = 0
KPA1 141203Z 28003KT 17/15 A3026 RMK A01 T01670145  RH  087%=      5-min Rain = 0
KPA1 141204Z 28003KT 17/15 A3026 RMK A01 T01680146  RH  087%=      5-min Rain = 0
KPA1 141205Z 29003KT 17/15 A3026 RMK A01 T01680146  RH  087%=      5-min Rain = 0
KPA1 141206Z 28003KT 17/15 A3026 RMK A01 T01680146  RH  087%=      5-min Rain = 0
KPA1 141207Z 29003KT 17/15 A3026 RMK A01 T01680146  RH  087%=      5-min Rain = 0
KPA1 141208Z 29004KT 17/15 A3026 RMK A01 T01680146  RH  087%=      5-min Rain = 0
KPA1 141209Z 28004KT 17/15 A3026 RMK A01 T01690146  RH  086%=      5-min Rain = 0
KPA1 141210Z 28004KT 17/15 A3026 RMK A01 T01690146  RH  086%=      5-min Rain = 0
KPA1 141211Z 27004KT 17/15 A3026 RMK A01 T01700146  RH  086%=      5-min Rain = 0
KPA1 141212Z 27004KT 17/15 A3026 RMK A01 T01700147  RH  086%=      5-min Rain = 0
KPA1 141213Z 26003KT 17/15 A3026 RMK A01 T01700146  RH  086%=      5-min Rain = 0
KPA1 141214Z 26003KT 17/15 A3026 RMK A01 T01700147  RH  086%=      5-min Rain = 0
KPA1 141215Z 26001KT 17/15 A3026 RMK A01 T01700146  RH  086%=      5-min Rain = 0
KPA1 141216Z 00000KT 17/15 A3026 RMK A01 T01700145  RH  086%=      5-min Rain = 0
KPA1 141217Z 00000KT 17/15 A3026 RMK A01 T01700146  RH  086%=      5-min Rain = 0
KPA1 141218Z 00000KT 17/15 A3026 RMK A01 T01700145  RH  085%=      5-min Rain = 0
KPA1 141219Z 00000KT 17/15 A3026 RMK A01 T01700145  RH  085%=      5-min Rain = 0
KPA1 141220Z 20001KT 17/15 A3026 RMK A01 T01700147  RH  086%=      5-min Rain = 0
KPA1 141221Z 21002KT 17/15 A3026 RMK A01 T01700148  RH  086%=      5-min Rain = 0
KPA1 141222Z 22003KT 17/15 A3026 RMK A01 T01700147  RH  086%=      5-min Rain = 0
KPA1 141223Z 21003KT 17/15 A3026 RMK A01 T01700150  RH  088%=      5-min Rain = 0
KPA1 141224Z 22004KT 17/15 A3026 RMK A01 T01690151  RH  089%=      5-min Rain = 0
KPA1 141225Z 22004KT 17/15 A3026 RMK A01 T01690149  RH  088%=      5-min Rain = 0
KPA1 141226Z 22003KT 17/15 A3026 RMK A01 T01690149  RH  088%=      5-min Rain = 0
KPA1 141227Z 24003KT 17/15 A3026 RMK A01 T01690148  RH  088%=      5-min Rain = 0
KPA1 141228Z 26002KT 17/15 A3026 RMK A01 T01680145  RH  086%=      5-min Rain = 0
KPA1 141229Z 25002KT 17/14 A3026 RMK A01 T01690144  RH  085%=      5-min Rain = 0
KPA1 141230Z 26002KT 17/14 A3026 RMK A01 T01700144  RH  085%=      5-min Rain = 0
KPA1 141231Z 27002KT 17/14 A3026 RMK A01 T01700144  RH  084%=      5-min Rain = 0
KPA1 141232Z 27004KT 17/15 A3026 RMK A01 T01700146  RH  086%=      5-min Rain = 0
KPA1 141233Z 29006KT 17/15 A3026 RMK A01 T01700148  RH  086%=      5-min Rain = 0
KPA1 141234Z 28006KT 17/14 A3026 RMK A01 T01720144  RH  084%=      5-min Rain = 0
KPA1 141235Z 29007KT 18/14 A3025 RMK A01 T01750143  RH  082%=      5-min Rain = 0
KPA1 141236Z 29006KT 18/14 A3025 RMK A01 T01770143  RH  081%=      5-min Rain = 0
KPA1 141237Z 28007KT 18/14 A3026 RMK A01 T01780144  RH  080%=      5-min Rain = 0
KPA1 141238Z 28009KT 18/15 A3026 RMK A01 T01790145  RH  081%=      5-min Rain = 0
KPA1 141239Z 28009KT 18/14 A3026 RMK A01 T01780144  RH  080%=      5-min Rain = 0
KPA1 141240Z 29007KT 18/14 A3025 RMK A01 T01790143  RH  079%=      5-min Rain = 0
KPA1 141241Z 29008KT 18/14 A3025 RMK A01 T01790144  RH  080%=      5-min Rain = 0
KPA1 141242Z 30009KT 18/14 A3025 RMK A01 T01800142  RH  078%=      5-min Rain = 0
KPA1 141243Z 30010KT 18/14 A3025 RMK A01 T01820140  RH  077%=      5-min Rain = 0
KPA1 141244Z 30012KT 19/14 A3025 RMK A01 T01850139  RH  074%=      5-min Rain = 0
KPA1 141245Z 30011KT 19/14 A3025 RMK A01 T01870140  RH  074%=      5-min Rain = 0
KPA1 141246Z 31012KT 19/14 A3025 RMK A01 T01890139  RH  073%=      5-min Rain = 0
KPA1 141247Z 30012KT 19/14 A3025 RMK A01 T01910137  RH  071%=      5-min Rain = 0
KPA1 141248Z 29012KT 19/14 A3025 RMK A01 T01930138  RH  071%=      5-min Rain = 0
KPA1 141249Z 29014KT 19/14 A3025 RMK A01 T01930138  RH  070%=      5-min Rain = 0
KPA1 141250Z 31013KT 19/14 A3025 RMK A01 T01940137  RH  069%=      5-min Rain = 0
KPA1 141251Z 31011KT 19/14 A3025 RMK A01 T01940137  RH  070%=      5-min Rain = 0
KPA1 141252Z 32009KT 19/14 A3025 RMK A01 T01940139  RH  070%=      5-min Rain = 0
KPA1 141253Z 33012KT 20/14 A3025 RMK A01 T01950137  RH  069%=      5-min Rain = 0
KPA1 141254Z 33012G17KT 20/14 A3025 RMK A01 T01970136  RH  068%=      5-min Rain = 0
KPA1 141255Z 32010KT 20/14 A3025 RMK A01 T01990137  RH  067%=      5-min Rain = 0
KPA1 141256Z 33014KT 20/14 A3024 RMK A01 T02000136  RH  067%=      5-min Rain = 0
KPA1 141257Z 32013KT 20/14 A3024 RMK A01 T02000136  RH  067%=      5-min Rain = 0
KPA1 141258Z 32011KT 20/14 A3024 RMK A01 T02000137  RH  067%=      5-min Rain = 0
KPA1 141259Z 32011KT 20/14 A3024 RMK A01 T02010137  RH  067%=      5-min Rain = 0
KPA1 141300Z 32011KT 20/14 A3024 RMK A01 T02000137  RH  067%=      5-min Rain = 0
KPA1 141301Z 32012KT 20/14 A3024 RMK A01 T02010138  RH  067%=      5-min Rain = 0
KPA1 141302Z 32011KT 20/14 A3024 RMK A01 T02000139  RH  068%=      5-min Rain = 0
KPA1 141303Z 31013KT 20/14 A3024 RMK A01 T01990141  RH  069%=      5-min Rain = 0
KPA1 141304Z 31013KT 20/14 A3024 RMK A01 T01980141  RH  070%=      5-min Rain = 0
KPA1 141305Z 31014KT 20/14 A3024 RMK A01 T01980140  RH  069%=      5-min Rain = 0
KPA1 141306Z 30014KT 20/14 A3024 RMK A01 T01990140  RH  069%=      5-min Rain = 0
KPA1 141307Z 30013KT 20/14 A3025 RMK A01 T01990141  RH  069%=      5-min Rain = 0
KPA1 141308Z 31014KT 20/14 A3025 RMK A01 T01990141  RH  069%=      5-min Rain = 0
KPA1 141309Z 31015KT 20/14 A3025 RMK A01 T02000139  RH  068%=      5-min Rain = 0
KPA1 141310Z 30015KT 20/14 A3025 RMK A01 T02020138  RH  067%=      5-min Rain = 0
KPA1 141311Z 31014KT 20/14 A3025 RMK A01 T02030138  RH  066%=      5-min Rain = 0
KPA1 141312Z 30014KT 20/14 A3025 RMK A01 T02040138  RH  066%=      5-min Rain = 0
KPA1 141313Z 30013KT 21/14 A3025 RMK A01 T02050138  RH  065%=      5-min Rain = 0
KPA1 141314Z 30013KT 21/14 A3025 RMK A01 T02050139  RH  066%=      5-min Rain = 0
KPA1 141315Z 30013KT 21/14 A3025 RMK A01 T02060139  RH  066%=      5-min Rain = 0
KPA1 141316Z 30012KT 21/14 A3025 RMK A01 T02060139  RH  066%=      5-min Rain = 0
KPA1 141317Z 30013KT 21/14 A3024 RMK A01 T02060139  RH  065%=      5-min Rain = 0
KPA1 141318Z 30014KT 21/14 A3025 RMK A01 T02070139  RH  065%=      5-min Rain = 0
KPA1 141319Z 30015KT 21/14 A3024 RMK A01 T02070139  RH  065%=      5-min Rain = 0
KPA1 141320Z 30014KT 21/14 A3024 RMK A01 T02080138  RH  064%=      5-min Rain = 0
KPA1 141321Z 31014KT 21/14 A3024 RMK A01 T02090137  RH  063%=      5-min Rain = 0
KPA1 141322Z 31014KT 21/14 A3025 RMK A01 T02100138  RH  063%=      5-min Rain = 0
KPA1 141323Z 30015KT 21/14 A3024 RMK A01 T02120138  RH  063%=      5-min Rain = 0
KPA1 141324Z 31013KT 21/14 A3025 RMK A01 T02120138  RH  062%=      5-min Rain = 0
KPA1 141325Z 30013KT 21/14 A3025 RMK A01 T02130138  RH  062%=      5-min Rain = 0
KPA1 141326Z 30013KT 21/14 A3025 RMK A01 T02130137  RH  062%=      5-min Rain = 0
KPA1 141327Z 30012KT 21/14 A3025 RMK A01 T02130138  RH  062%=      5-min Rain = 0
KPA1 141328Z 31012KT 21/14 A3025 RMK A01 T02130138  RH  062%=      5-min Rain = 0
KPA1 141329Z 31011KT 21/14 A3025 RMK A01 T02130139  RH  063%=      5-min Rain = 0
KPA1 141330Z 31010KT 21/14 A3025 RMK A01 T02120142  RH  064%=      5-min Rain = 0
KPA1 141331Z 32009KT 21/14 A3024 RMK A01 T02110140  RH  064%=      5-min Rain = 0
KPA1 141332Z 32008KT 21/14 A3024 RMK A01 T02110142  RH  065%=      5-min Rain = 0
KPA1 141333Z 32009KT 21/14 A3024 RMK A01 T02100143  RH  066%=      5-min Rain = 0
KPA1 141334Z 32009KT 21/14 A3024 RMK A01 T02100143  RH  066%=      5-min Rain = 0
KPA1 141335Z 32010KT 21/14 A3024 RMK A01 T02090141  RH  065%=      5-min Rain = 0
KPA1 141336Z 32009KT 21/14 A3024 RMK A01 T02100141  RH  065%=      5-min Rain = 0
KPA1 141337Z 32010KT 21/14 A3024 RMK A01 T02110141  RH  064%=      5-min Rain = 0
KPA1 141338Z 32010KT 21/14 A3024 RMK A01 T02130139  RH  063%=      5-min Rain = 0
KPA1 141339Z 32008KT 22/14 A3024 RMK A01 T02150139  RH  062%=      5-min Rain = 0
KPA1 141340Z 32009KT 22/14 A3024 RMK A01 T02150140  RH  062%=      5-min Rain = 0
KPA1 141341Z 33009KT 22/14 A3024 RMK A01 T02160139  RH  061%=      5-min Rain = 0
KPA1 141342Z 33009KT 22/14 A3024 RMK A01 T02170141  RH  062%=      5-min Rain = 0
KPA1 141343Z 33009KT 22/14 A3024 RMK A01 T02170139  RH  061%=      5-min Rain = 0
KPA1 141344Z 32010KT 22/14 A3024 RMK A01 T02180137  RH  060%=      5-min Rain = 0
KPA1 141345Z 32009KT 22/14 A3024 RMK A01 T02200138  RH  060%=      5-min Rain = 0
KPA1 141346Z 33009KT 22/14 A3024 RMK A01 T02200141  RH  061%=      5-min Rain = 0
KPA1 141347Z 33008KT 22/14 A3024 RMK A01 T02190141  RH  061%=      5-min Rain = 0
KPA1 141348Z 33008KT 22/14 A3024 RMK A01 T02190141  RH  061%=      5-min Rain = 0
KPA1 141349Z 32009KT 22/14 A3024 RMK A01 T02190141  RH  061%=      5-min Rain = 0
KPA1 141350Z 33009KT 22/14 A3024 RMK A01 T02190139  RH  061%=      5-min Rain = 0
KPA1 141351Z 33009KT 22/14 A3024 RMK A01 T02190138  RH  060%=      5-min Rain = 0
KPA1 141352Z 32009KT 22/14 A3024 RMK A01 T02200139  RH  060%=      5-min Rain = 0
KPA1 141353Z 32008KT 22/14 A3024 RMK A01 T02200139  RH  060%=      5-min Rain = 0
KPA1 141354Z 32008KT 22/14 A3024 RMK A01 T02200139  RH  060%=      5-min Rain = 0
KPA1 141355Z 32006KT 22/14 A3023 RMK A01 T02200139  RH  060%=      5-min Rain = 0
KPA1 141356Z 33007KT 22/14 A3023 RMK A01 T02200140  RH  060%=      5-min Rain = 0
KPA1 141357Z 32007KT 22/14 A3023 RMK A01 T02200141  RH  061%=      5-min Rain = 0
KPA1 141358Z 32007KT 22/14 A3023 RMK A01 T02200141  RH  061%=      5-min Rain = 0
KPA1 141359Z 32007KT 22/14 A3023 RMK A01 T02200144  RH  062%=      5-min Rain = 0
KPA1 141400Z 32006KT 22/15 A3023 RMK A01 T02200145  RH  063%=      5-min Rain = 0
KPA1 141401Z 33006KT 22/14 A3023 RMK A01 T02190144  RH  062%=      5-min Rain = 0
KPA1 141402Z 34006KT 22/15 A3023 RMK A01 T02190145  RH  063%=      5-min Rain = 0
KPA1 141403Z 35007KT 22/15 A3023 RMK A01 T02190146  RH  063%=      5-min Rain = 0
KPA1 141404Z 36007KT 22/14 A3023 RMK A01 T02190142  RH  062%=      5-min Rain = 0
KPA1 141405Z 00006KT 22/14 A3022 RMK A01 T02210140  RH  060%=      5-min Rain = 0
KPA1 141406Z 01006KT 22/14 A3022 RMK A01 T02230135  RH  057%=      5-min Rain = 0
KPA1 141407Z 02006KT 23/13 A3022 RMK A01 T02270133  RH  056%=      5-min Rain = 0
KPA1 141408Z 02006KT 23/13 A3022 RMK A01 T02300131  RH  054%=      5-min Rain = 0
KPA1 141409Z 02004KT 23/13 A3022 RMK A01 T02330129  RH  052%=      5-min Rain = 0
KPA1 141410Z 02004KT 24/13 A3022 RMK A01 T02350126  RH  050%=      5-min Rain = 0
KPA1 141411Z 03003KT 24/13 A3021 RMK A01 T02370125  RH  049%=      5-min Rain = 0
KPA1 141412Z 03003KT 24/12 A3021 RMK A01 T02380124  RH  049%=      5-min Rain = 0
KPA1 141413Z 03003KT 24/13 A3021 RMK A01 T02390126  RH  049%=      5-min Rain = 0
KPA1 141414Z 01003KT 24/13 A3021 RMK A01 T02400125  RH  049%=      5-min Rain = 0
KPA1 141415Z 35003KT 24/13 A3022 RMK A01 T02410129  RH  050%=      5-min Rain = 0
KPA1 141416Z 33003KT 24/14 A3022 RMK A01 T02410137  RH  052%=      5-min Rain = 0
KPA1 141417Z 32003KT 24/14 A3022 RMK A01 T02400139  RH  053%=      5-min Rain = 0
KPA1 141418Z 36004KT 24/14 A3023 RMK A01 T02390135  RH  052%=      5-min Rain = 0
KPA1 141419Z 05012G17KT 24/14 A3024 RMK A01 T02380141  RH  055%=      5-min Rain = 0
KPA1 141420Z 09012KT 23/14 A3024 RMK A01 T02300144  RH  058%=      5-min Rain = 0
KPA1 141421Z 09013KT 22/15 A3024 RMK A01 T02190145  RH  063%=      5-min Rain = 0
KPA1 141422Z 10008KT 21/14 A3024 RMK A01 T02130144  RH  065%=      5-min Rain = 0
KPA1 141423Z 10008KT 21/15 A3024 RMK A01 T02110145  RH  066%=      5-min Rain = 0
KPA1 141424Z 10006KT 21/15 A3024 RMK A01 T02100146  RH  067%=      5-min Rain = 0
KPA1 141425Z 10008KT 21/15 A3024 RMK A01 T02090147  RH  067%=      5-min Rain = 0
KPA1 141426Z 10007KT 21/15 A3024 RMK A01 T02090147  RH  068%=      5-min Rain = 0
KPA1 141427Z 10008KT 21/15 A3024 RMK A01 T02090146  RH  067%=      5-min Rain = 0
KPA1 141428Z 10008KT 21/15 A3024 RMK A01 T02090146  RH  067%=      5-min Rain = 0
KPA1 141429Z 10008KT 21/15 A3024 RMK A01 T02090145  RH  067%=      5-min Rain = 0
KPA1 141430Z 11009KT 21/15 A3025 RMK A01 T02090146  RH  067%=      5-min Rain = 0
KPA1 141431Z 10011KT 21/15 A3025 RMK A01 T02090146  RH  067%=      5-min Rain = 0
KPA1 141432Z 09012KT 21/15 A3025 RMK A01 T02080145  RH  067%=      5-min Rain = 0
KPA1 141433Z 09010KT 21/15 A3025 RMK A01 T02070146  RH  068%=      5-min Rain = 0
KPA1 141434Z 09008KT 21/15 A3025 RMK A01 T02070146  RH  068%=      5-min Rain = 0
KPA1 141435Z 10009KT 21/15 A3025 RMK A01 T02060146  RH  069%=      5-min Rain = 0
KPA1 141436Z 10007KT 21/15 A3025 RMK A01 T02050147  RH  069%=      5-min Rain = 0
KPA1 141437Z 10007KT 21/15 A3025 RMK A01 T02050147  RH  070%=      5-min Rain = 0
KPA1 141438Z 10008KT 20/15 A3025 RMK A01 T02040149  RH  070%=      5-min Rain = 0
KPA1 141439Z 11008KT 20/15 A3025 RMK A01 T02040149  RH  070%=      5-min Rain = 0
KPA1 141440Z 10008KT 20/15 A3025 RMK A01 T02030148  RH  070%=      5-min Rain = 0
KPA1 141441Z 09011KT 20/15 A3025 RMK A01 T02030149  RH  071%=      5-min Rain = 0
KPA1 141442Z 09010KT 20/15 A3026 RMK A01 T02030150  RH  072%=      5-min Rain = 0
KPA1 141443Z 10008KT 20/15 A3025 RMK A01 T02020150  RH  072%=      5-min Rain = 0
KPA1 141444Z 12007KT 20/15 A3025 RMK A01 T02020150  RH  072%=      5-min Rain = 0
KPA1 141445Z 13007KT 20/15 A3025 RMK A01 T02010150  RH  072%=      5-min Rain = 0
KPA1 141446Z 12008KT 20/15 A3026 RMK A01 T02010149  RH  072%=      5-min Rain = 0
KPA1 141447Z 13008KT 20/15 A3026 RMK A01 T02010150  RH  072%=      5-min Rain = 0
KPA1 141448Z 15009KT 20/15 A3025 RMK A01 T02010150  RH  072%=      5-min Rain = 0
KPA1 141449Z 15008KT 20/15 A3026 RMK A01 T02010152  RH  073%=      5-min Rain = 0
KPA1 141450Z 16009KT 20/15 A3026 RMK A01 T02010152  RH  073%=      5-min Rain = 0
KPA1 141451Z 15008KT 20/15 A3025 RMK A01 T02000152  RH  074%=      5-min Rain = 0
KPA1 141452Z 15009KT 20/15 A3025 RMK A01 T02000150  RH  073%=      5-min Rain = 0
KPA1 141453Z 15008KT 20/15 A3025 RMK A01 T01990148  RH  072%=      5-min Rain = 0
KPA1 141454Z 15007KT 20/15 A3025 RMK A01 T01990148  RH  072%=      5-min Rain = 0
KPA1 141455Z 14007KT 20/15 A3026 RMK A01 T01990147  RH  072%=      5-min Rain = 0
KPA1 141456Z 14006KT 20/15 A3026 RMK A01 T01990148  RH  072%=      5-min Rain = 0
KPA1 141457Z 12005KT 20/15 A3026 RMK A01 T02000150  RH  073%=      5-min Rain = 0
KPA1 141458Z 05006KT 20/15 A3027 RMK A01 T02000149  RH  073%=      5-min Rain = 0
KPA1 141459Z 03009KT 20/15 A3028 RMK A01 T02000153  RH  074%=      5-min Rain = 0
KPA1 141500Z 04009KT 20/15 A3028 RMK A01 T02000152  RH  074%=      5-min Rain = 0
KPA1 141501Z 04008KT 20/15 A3028 RMK A01 T02000153  RH  074%=      5-min Rain = 0
KPA1 141502Z 05007KT 20/15 A3029 RMK A01 T02000154  RH  074%=      5-min Rain = 0
KPA1 141503Z 05008KT 20/15 A3029 RMK A01 T02000152  RH  074%=      5-min Rain = 0
KPA1 141504Z 05008KT 20/15 A3029 RMK A01 T02000153  RH  074%=      5-min Rain = 0
KPA1 141505Z 05006KT 20/15 A3029 RMK A01 T02000153  RH  074%=      5-min Rain = 0
KPA1 141506Z 05005KT 20/15 A3029 RMK A01 T02000153  RH  074%=      5-min Rain = 0
KPA1 141507Z 04004KT 20/15 A3029 RMK A01 T02010153  RH  074%=      5-min Rain = 0
KPA1 141508Z 03005KT 20/15 A303 RMK A01 T02010153  RH  074%=      5-min Rain = 0
KPA1 141509Z 04005KT 20/15 A303 RMK A01 T02020152  RH  073%=      5-min Rain = 0
KPA1 141510Z 03004KT 20/15 A3031 RMK A01 T02020151  RH  072%=      5-min Rain = 0
KPA1 141511Z 02005KT 20/15 A3031 RMK A01 T02030152  RH  072%=      5-min Rain = 0
KPA1 141512Z 02004KT 20/15 A3032 RMK A01 T02040153  RH  072%=      5-min Rain = 0
KPA1 141513Z 00004KT 21/15 A3032 RMK A01 T02050153  RH  072%=      5-min Rain = 0
KPA1 141514Z 00005KT 21/15 A3032 RMK A01 T02060148  RH  070%=      5-min Rain = 0
KPA1 141515Z 02005KT 21/15 A3032 RMK A01 T02060148  RH  069%=      5-min Rain = 0
KPA1 141516Z 01005KT 21/15 A3032 RMK A01 T02070149  RH  069%=      5-min Rain = 0
KPA1 141517Z 02005KT 21/15 A3033 RMK A01 T02070148  RH  069%=      5-min Rain = 0
KPA1 141518Z 04003KT 21/15 A3033 RMK A01 T02080148  RH  069%=      5-min Rain = 0
KPA1 141519Z 05003KT 21/15 A3032 RMK A01 T02080148  RH  068%=      5-min Rain = 0
KPA1 141520Z 08001KT 21/15 A3032 RMK A01 T02080147  RH  068%=      5-min Rain = 0
KPA1 141521Z 09002KT 21/15 A3032 RMK A01 T02090151  RH  069%=      5-min Rain = 0
KPA1 141522Z 07002KT 21/15 A3032 RMK A01 T02090152  RH  069%=      5-min Rain = 0
KPA1 141523Z 06002KT 21/15 A3032 RMK A01 T02100152  RH  069%=      5-min Rain = 0
KPA1 141524Z 06002KT 21/15 A3032 RMK A01 T02100152  RH  069%=      5-min Rain = 0
KPA1 141525Z 05004KT 21/15 A3031 RMK A01 T02110151  RH  069%=      5-min Rain = 0
KPA1 141526Z 06004KT 21/15 A3031 RMK A01 T02110151  RH  068%=      5-min Rain = 0
KPA1 141527Z 05003KT 21/15 A3031 RMK A01 T02110151  RH  069%=      5-min Rain = 0
KPA1 141528Z 03003KT 21/15 A3032 RMK A01 T02110151  RH  068%=      5-min Rain = 0
KPA1 141529Z 03004KT 21/15 A3032 RMK A01 T02110149  RH  068%=      5-min Rain = 0
KPA1 141530Z 03004KT 21/15 A3032 RMK A01 T02110148  RH  067%=      5-min Rain = 0
KPA1 141531Z 02005KT 21/15 A3032 RMK A01 T02120149  RH  067%=      5-min Rain = 0
KPA1 141532Z 02005KT 21/15 A3032 RMK A01 T02130148  RH  066%=      5-min Rain = 0
KPA1 141533Z 03005KT 21/15 A3032 RMK A01 T02130146  RH  065%=      5-min Rain = 0
KPA1 141534Z 04005KT 21/15 A3032 RMK A01 T02140147  RH  066%=      5-min Rain = 0
KPA1 141535Z 04004KT 22/15 A3032 RMK A01 T02150147  RH  065%=      5-min Rain = 0
KPA1 141536Z 04006KT 22/15 A3032 RMK A01 T02160147  RH  065%=      5-min Rain = 0
KPA1 141537Z 03006KT 22/15 A3032 RMK A01 T02170148  RH  065%=      5-min Rain = 0
KPA1 141538Z 03007KT 22/15 A3031 RMK A01 T02170146  RH  064%=      5-min Rain = 0
KPA1 141539Z 03005KT 22/15 A3031 RMK A01 T02170147  RH  064%=      5-min Rain = 0
KPA1 141540Z 03006KT 22/15 A3031 RMK A01 T02180146  RH  063%=      5-min Rain = 0
KPA1 141541Z 02007KT 22/15 A3031 RMK A01 T02200148  RH  063%=      5-min Rain = 0
KPA1 141542Z 02010KT 22/14 A3032 RMK A01 T02210141  RH  061%=      5-min Rain = 0
KPA1 141543Z 01010KT 22/14 A3032 RMK A01 T02220142  RH  060%=      5-min Rain = 0
KPA1 141544Z 01013KT 23/14 A3032 RMK A01 T02250142  RH  059%=      5-min Rain = 0
KPA1 141545Z 02010KT 23/14 A3031 RMK A01 T02250142  RH  059%=      5-min Rain = 0
KPA1 141546Z 02008KT 23/14 A3031 RMK A01 T02260144  RH  060%=      5-min Rain = 0
KPA1 141547Z 02011KT 23/15 A3031 RMK A01 T02290145  RH  059%=      5-min Rain = 0
KPA1 141548Z 03014KT 23/14 A3031 RMK A01 T02320144  RH  058%=      5-min Rain = 0
KPA1 141549Z 03012KT 23/14 A3031 RMK A01 T02330144  RH  058%=      5-min Rain = 0
KPA1 141550Z 03015KT 23/14 A3031 RMK A01 T02340142  RH  056%=      5-min Rain = 0
KPA1 141551Z 02015KT 23/14 A3031 RMK A01 T02310139  RH  056%=      5-min Rain = 0
KPA1 141552Z 02016KT 23/14 A3031 RMK A01 T02280138  RH  057%=      5-min Rain = 0
KPA1 141553Z 03012KT 23/14 A3031 RMK A01 T02270140  RH  058%=      5-min Rain = 0
KPA1 141554Z 02016KT 23/14 A3031 RMK A01 T02300141  RH  057%=      5-min Rain = 0
KPA1 141555Z 02016KT 23/14 A3031 RMK A01 T02310140  RH  056%=      5-min Rain = 0
KPA1 141556Z 02018KT 23/14 A303 RMK A01 T02310139  RH  056%=      5-min Rain = 0
KPA1 141557Z 02014KT 23/14 A303 RMK A01 T02310143  RH  057%=      5-min Rain = 0
KPA1 141558Z 00017KT 23/14 A303 RMK A01 T02340142  RH  056%=      5-min Rain = 0
KPA1 141559Z 02017KT 23/14 A303 RMK A01 T02340143  RH  057%=      5-min Rain = 0
KPA1 141600Z 02015KT 23/14 A303 RMK A01 T02330143  RH  057%=      5-min Rain = 0
KPA1 141601Z 02015KT 23/14 A303 RMK A01 T02320143  RH  057%=      5-min Rain = 0
KPA1 141602Z 02016KT 23/14 A303 RMK A01 T02320144  RH  058%=      5-min Rain = 0
KPA1 141603Z 02015KT 23/14 A303 RMK A01 T02320143  RH  057%=      5-min Rain = 0
KPA1 141604Z 01014KT 23/14 A303 RMK A01 T02320143  RH  057%=      5-min Rain = 0
KPA1 141605Z 02016KT 23/15 A303 RMK A01 T02330145  RH  058%=      5-min Rain = 0
KPA1 141606Z 03015KT 23/14 A303 RMK A01 T02330144  RH  057%=      5-min Rain = 0
KPA1 141607Z 02015KT 23/15 A303 RMK A01 T02320145  RH  058%=      5-min Rain = 0
KPA1 141608Z 02014KT 23/14 A303 RMK A01 T02330144  RH  058%=      5-min Rain = 0
KPA1 141609Z 01013KT 23/15 A303 RMK A01 T02320146  RH  058%=      5-min Rain = 0
KPA1 141610Z 03012KT 23/15 A303 RMK A01 T02330147  RH  058%=      5-min Rain = 0
KPA1 141611Z 03016KT 24/15 A303 RMK A01 T02350148  RH  058%=      5-min Rain = 0
KPA1 141612Z 03014KT 24/15 A303 RMK A01 T02370147  RH  057%=      5-min Rain = 0
KPA1 141613Z 03014KT 24/15 A303 RMK A01 T02360146  RH  057%=      5-min Rain = 0
KPA1 141614Z 03013KT 24/15 A303 RMK A01 T02350146  RH  058%=      5-min Rain = 0
KPA1 141615Z 03013KT 24/15 A303 RMK A01 T02360147  RH  058%=      5-min Rain = 0
KPA1 141616Z 03014KT 24/15 A303 RMK A01 T02370147  RH  057%=      5-min Rain = 0
KPA1 141617Z 02014KT 24/15 A303 RMK A01 T02380145  RH  056%=      5-min Rain = 0
KPA1 141618Z 01013G18KT 24/14 A303 RMK A01 T02370144  RH  056%=      5-min Rain = 0
KPA1 141619Z 01014KT 24/15 A3029 RMK A01 T02350146  RH  057%=      5-min Rain = 0
KPA1 141620Z 01013KT 24/15 A3029 RMK A01 T02360145  RH  057%=      5-min Rain = 0
KPA1 141621Z 02013G18KT 24/15 A3029 RMK A01 T02360145  RH  057%=      5-min Rain = 0
KPA1 141622Z 02013KT 24/15 A3029 RMK A01 T02360145  RH  057%=      5-min Rain = 0
KPA1 141623Z 03014KT 24/15 A3029 RMK A01 T02360146  RH  057%=      5-min Rain = 0
KPA1 141624Z 02012KT 24/15 A3029 RMK A01 T02350146  RH  057%=      5-min Rain = 0
KPA1 141625Z 02012KT 24/15 A3029 RMK A01 T02350147  RH  057%=      5-min Rain = 0
KPA1 141626Z 01011KT 24/15 A3029 RMK A01 T02360148  RH  058%=      5-min Rain = 0
KPA1 141627Z 01016KT 24/15 A3029 RMK A01 T02380148  RH  057%=      5-min Rain = 0
KPA1 141628Z 01015KT 24/15 A3029 RMK A01 T02400146  RH  056%=      5-min Rain = 0
KPA1 141629Z 01012KT 24/15 A3028 RMK A01 T02400149  RH  057%=      5-min Rain = 0
KPA1 141630Z 02016KT 24/15 A3028 RMK A01 T02440147  RH  055%=      5-min Rain = 0
KPA1 141631Z 02014KT 24/14 A3028 RMK A01 T02410144  RH  055%=      5-min Rain = 0
KPA1 141632Z 02011KT 24/15 A3028 RMK A01 T02390148  RH  057%=      5-min Rain = 0
KPA1 141633Z 02010KT 24/15 A3028 RMK A01 T02410151  RH  057%=      5-min Rain = 0
KPA1 141634Z 02013KT 24/15 A3028 RMK A01 T02430150  RH  056%=      5-min Rain = 0
KPA1 141635Z 00014KT 24/15 A3028 RMK A01 T02440149  RH  055%=      5-min Rain = 0
KPA1 141636Z 01014KT 24/15 A3028 RMK A01 T02440148  RH  055%=      5-min Rain = 0
KPA1 141637Z 01010KT 24/15 A3028 RMK A01 T02420148  RH  056%=      5-min Rain = 0
KPA1 141638Z 02012KT 24/15 A3028 RMK A01 T02400149  RH  057%=      5-min Rain = 0
KPA1 141639Z 02012KT 24/15 A3028 RMK A01 T02410149  RH  056%=      5-min Rain = 0
KPA1 141640Z 01010KT 24/15 A3028 RMK A01 T02410151  RH  057%=      5-min Rain = 0
KPA1 141641Z 36011KT 24/15 A3028 RMK A01 T02420148  RH  056%=      5-min Rain = 0
KPA1 141642Z 35012KT 24/15 A3028 RMK A01 T02440149  RH  055%=      5-min Rain = 0
KPA1 141643Z 36010KT 25/15 A3028 RMK A01 T02450150  RH  055%=      5-min Rain = 0
KPA1 141644Z 00013KT 25/15 A3028 RMK A01 T02450146  RH  054%=      5-min Rain = 0
KPA1 141645Z 02015KT 25/14 A3028 RMK A01 T02450143  RH  053%=      5-min Rain = 0
KPA1 141646Z 02013KT 25/15 A3028 RMK A01 T02450146  RH  054%=      5-min Rain = 0
KPA1 141647Z 02012KT 25/15 A3028 RMK A01 T02460145  RH  053%=      5-min Rain = 0
KPA1 141648Z 03011KT 25/15 A3028 RMK A01 T02460146  RH  054%=      5-min Rain = 0
KPA1 141649Z 02010KT 25/15 A3028 RMK A01 T02450146  RH  054%=      5-min Rain = 0
KPA1 141650Z 36009KT 25/15 A3028 RMK A01 T02460145  RH  053%=      5-min Rain = 0
KPA1 141651Z 35013KT 25/15 A3027 RMK A01 T02450146  RH  054%=      5-min Rain = 0
KPA1 141652Z 36012KT 25/15 A3027 RMK A01 T02470148  RH  054%=      5-min Rain = 0
KPA1 141653Z 01011KT 25/15 A3028 RMK A01 T02480147  RH  053%=      5-min Rain = 0
KPA1 141654Z 01010KT 25/15 A3028 RMK A01 T02490147  RH  053%=      5-min Rain = 0
KPA1 141655Z 01009KT 25/15 A3028 RMK A01 T02480146  RH  053%=      5-min Rain = 0
KPA1 141656Z 01008KT 25/15 A3027 RMK A01 T02470146  RH  053%=      5-min Rain = 0
KPA1 141657Z 01006KT 25/15 A3027 RMK A01 T02470147  RH  054%=      5-min Rain = 0
KPA1 141658Z 04008KT 25/15 A3027 RMK A01 T02500147  RH  053%=      5-min Rain = 0
KPA1 141659Z 04007KT 25/15 A3027 RMK A01 T02520145  RH  051%=      5-min Rain = 0
KPA1 141700Z 03011KT 25/15 A3027 RMK A01 T02530145  RH  051%=      5-min Rain = 0
KPA1 141701Z 02013KT 25/14 A3027 RMK A01 T02540140  RH  049%=      5-min Rain = 0
KPA1 141702Z 02010KT 25/14 A3027 RMK A01 T02530142  RH  050%=      5-min Rain = 0
KPA1 141703Z 02011KT 25/14 A3027 RMK A01 T02520143  RH  051%=      5-min Rain = 0
KPA1 141704Z 02010KT 25/14 A3027 RMK A01 T02510144  RH  051%=      5-min Rain = 0
KPA1 141705Z 02010KT 25/14 A3027 RMK A01 T02520143  RH  051%=      5-min Rain = 0
KPA1 141706Z 02010KT 25/14 A3027 RMK A01 T02530142  RH  050%=      5-min Rain = 0
KPA1 141707Z 01012KT 25/14 A3027 RMK A01 T02520141  RH  050%=      5-min Rain = 0
KPA1 141708Z 00012KT 25/14 A3027 RMK A01 T02490139  RH  050%=      5-min Rain = 0
KPA1 141709Z 02011KT 24/14 A3027 RMK A01 T02440138  RH  052%=      5-min Rain = 0
KPA1 141710Z 01011KT 24/14 A3027 RMK A01 T02420142  RH  054%=      5-min Rain = 0
KPA1 141711Z 02012KT 25/14 A3027 RMK A01 T02450143  RH  053%=      5-min Rain = 0
KPA1 141712Z 02009KT 25/14 A3027 RMK A01 T02460142  RH  052%=      5-min Rain = 0
KPA1 141713Z 03009KT 25/14 A3027 RMK A01 T02470143  RH  052%=      5-min Rain = 0
KPA1 141714Z 01008KT 25/15 A3027 RMK A01 T02480146  RH  053%=      5-min Rain = 0
KPA1 141715Z 02008KT 25/14 A3027 RMK A01 T02510144  RH  051%=      5-min Rain = 0
KPA1 141716Z 01009KT 25/15 A3027 RMK A01 T02520147  RH  052%=      5-min Rain = 0
KPA1 141717Z 01010KT 25/15 A3027 RMK A01 T02540145  RH  051%=      5-min Rain = 0
KPA1 141718Z 02007KT 25/15 A3027 RMK A01 T02540145  RH  051%=      5-min Rain = 0
KPA1 141719Z 02007KT 26/15 A3027 RMK A01 T02560148  RH  051%=      5-min Rain = 0
KPA1 141720Z 02010KT 26/15 A3027 RMK A01 T02590151  RH  051%=      5-min Rain = 0
KPA1 141721Z 02009KT 26/15 A3027 RMK A01 T02620149  RH  050%=      5-min Rain = 0
KPA1 141722Z 03010KT 26/15 A3027 RMK A01 T02610147  RH  049%=      5-min Rain = 0
KPA1 141723Z 01008KT 26/15 A3027 RMK A01 T02610149  RH  050%=      5-min Rain = 0
KPA1 141724Z 01006KT 26/15 A3027 RMK A01 T02630150  RH  050%=      5-min Rain = 0
KPA1 141725Z 03008KT 26/15 A3027 RMK A01 T02640146  RH  048%=      5-min Rain = 0
KPA1 141726Z 05008KT 26/14 A3027 RMK A01 T02610144  RH  048%=      5-min Rain = 0
KPA1 141727Z 04006KT 26/15 A3027 RMK A01 T02610147  RH  050%=      5-min Rain = 0
KPA1 141728Z 04005KT 26/15 A3026 RMK A01 T02610146  RH  049%=      5-min Rain = 0
KPA1 141729Z 04006KT 26/15 A3026 RMK A01 T02600145  RH  049%=      5-min Rain = 0
KPA1 141730Z 02005KT 26/15 A3026 RMK A01 T02590147  RH  050%=      5-min Rain = 0
KPA1 141731Z 34005KT 26/15 A3026 RMK A01 T02560145  RH  050%=      5-min Rain = 0
KPA1 141732Z 32005KT 25/14 A3026 RMK A01 T02530143  RH  051%=      5-min Rain = 0
KPA1 141733Z 36008KT 25/15 A3027 RMK A01 T02520145  RH  051%=      5-min Rain = 0
KPA1 141734Z 01007KT 25/14 A3027 RMK A01 T02530142  RH  050%=      5-min Rain = 0
KPA1 141735Z 02003KT 25/14 A3026 RMK A01 T02520140  RH  050%=      5-min Rain = 0
KPA1 141736Z 00001KT 25/14 A3026 RMK A01 T02500138  RH  050%=      5-min Rain = 0
KPA1 141737Z 01000KT 25/14 A3026 RMK A01 T02490137  RH  050%=      5-min Rain = 0
KPA1 141738Z 02000KT 25/14 A3026 RMK A01 T02480138  RH  051%=      5-min Rain = 0
KPA1 141739Z 32001KT 25/14 A3026 RMK A01 T02480142  RH  052%=      5-min Rain = 0
KPA1 141740Z 28003KT 25/15 A3025 RMK A01 T02500146  RH  052%=      5-min Rain = 0
KPA1 141741Z 30001KT 25/15 A3026 RMK A01 T02520146  RH  052%=      5-min Rain = 0
KPA1 141742Z 05004KT 26/15 A3026 RMK A01 T02550145  RH  051%=      5-min Rain = 0
KPA1 141743Z 04004KT 26/15 A3026 RMK A01 T02570145  RH  050%=      5-min Rain = 0
KPA1 141744Z 04005KT 26/15 A3025 RMK A01 T02590145  RH  049%=      5-min Rain = 0
KPA1 141745Z 05005KT 26/14 A3025 RMK A01 T02600143  RH  049%=      5-min Rain = 0
KPA1 141746Z 04005KT 26/14 A3025 RMK A01 T02590144  RH  049%=      5-min Rain = 0
KPA1 141747Z 04006KT 26/14 A3025 RMK A01 T02580143  RH  049%=      5-min Rain = 0
KPA1 141748Z 07005KT 26/15 A3025 RMK A01 T02590145  RH  049%=      5-min Rain = 0
KPA1 141749Z 09004KT 26/15 A3025 RMK A01 T02590149  RH  051%=      5-min Rain = 0
KPA1 141750Z 10003KT 26/15 A3025 RMK A01 T02610148  RH  050%=      5-min Rain = 0
KPA1 141751Z 14003KT 26/14 A3025 RMK A01 T02620142  RH  048%=      5-min Rain = 0
KPA1 141752Z 15003KT 26/15 A3024 RMK A01 T02620148  RH  050%=      5-min Rain = 0
KPA1 141753Z 11000KT 26/14 A3024 RMK A01 T02630143  RH  047%=      5-min Rain = 0
KPA1 141754Z 12004KT 26/15 A3024 RMK A01 T02630146  RH  048%=      5-min Rain = 0
KPA1 141755Z 13002KT 26/14 A3024 RMK A01 T02630144  RH  048%=      5-min Rain = 0
KPA1 141756Z 14001KT 26/15 A3023 RMK A01 T02630145  RH  048%=      5-min Rain = 0
KPA1 141757Z 18003KT 27/14 A3023 RMK A01 T02650142  RH  047%=      5-min Rain = 0
KPA1 141758Z 14007KT 26/14 A3023 RMK A01 T02640144  RH  048%=      5-min Rain = 0
KPA1 141759Z 13006KT 26/15 A3022 RMK A01 T02640145  RH  048%=      5-min Rain = 0
KPA1 141800Z 11008KT 26/15 A3022 RMK A01 T02640146  RH  048%=      5-min Rain = 0
KPA1 141801Z 09009KT 26/15 A3022 RMK A01 T02640147  RH  049%=      5-min Rain = 0
KPA1 141802Z 08007KT 27/15 A3022 RMK A01 T02650146  RH  048%=      5-min Rain = 0
KPA1 141803Z 10007KT 27/15 A3022 RMK A01 T02650147  RH  048%=      5-min Rain = 0
KPA1 141804Z 11008KT 26/14 A3022 RMK A01 T02640144  RH  047%=      5-min Rain = 0
KPA1 141805Z 09008KT 26/14 A3022 RMK A01 T02640144  RH  048%=      5-min Rain = 0
KPA1 141806Z 08008KT 26/15 A3022 RMK A01 T02640149  RH  049%=      5-min Rain = 0
KPA1 141807Z 06008KT 26/14 A3022 RMK A01 T02630144  RH  048%=      5-min Rain = 0
KPA1 141808Z 07006KT 26/14 A3022 RMK A01 T02610142  RH  048%=      5-min Rain = 0
KPA1 141809Z 11007KT 26/15 A3022 RMK A01 T02590145  RH  049%=      5-min Rain = 0
KPA1 141810Z 12009KT 26/15 A3021 RMK A01 T02620148  RH  049%=      5-min Rain = 0
KPA1 141811Z 10009KT 27/15 A3021 RMK A01 T02670150  RH  049%=      5-min Rain = 0
KPA1 141812Z 11010KT 27/15 A3021 RMK A01 T02680151  RH  049%=      5-min Rain = 0
KPA1 141813Z 10010KT 27/15 A3021 RMK A01 T02700150  RH  048%=      5-min Rain = 0
KPA1 141814Z 10008KT 27/15 A3021 RMK A01 T02700153  RH  049%=      5-min Rain = 0
KPA1 141815Z 08004KT 27/16 A3021 RMK A01 T02710155  RH  049%=      5-min Rain = 0
KPA1 141816Z 07005KT 27/15 A3022 RMK A01 T02740154  RH  048%=      5-min Rain = 0
KPA1 141817Z 05006KT 27/15 A3022 RMK A01 T02730152  RH  047%=      5-min Rain = 0
KPA1 141818Z 03004KT 27/15 A3022 RMK A01 T02690148  RH  048%=      5-min Rain = 0
KPA1 141819Z 04005KT 27/15 A3023 RMK A01 T02650146  RH  048%=      5-min Rain = 0
KPA1 141820Z 07003KT 26/14 A3023 RMK A01 T02620144  RH  048%=      5-min Rain = 0
KPA1 141821Z 08001KT 26/14 A3023 RMK A01 T02600142  RH  048%=      5-min Rain = 0
KPA1 141822Z 04001KT 26/15 A3023 RMK A01 T02590146  RH  050%=      5-min Rain = 0
KPA1 141823Z 02004KT 26/15 A3023 RMK A01 T02590146  RH  050%=      5-min Rain = 0
KPA1 141824Z 02003KT 26/14 A3023 RMK A01 T02590142  RH  048%=      5-min Rain = 0
KPA1 141825Z 04004KT 26/15 A3023 RMK A01 T02590147  RH  050%=      5-min Rain = 0
KPA1 141826Z 08004KT 26/15 A3023 RMK A01 T02590148  RH  050%=      5-min Rain = 0
KPA1 141827Z 10003KT 26/14 A3023 RMK A01 T02580143  RH  049%=      5-min Rain = 0
KPA1 141828Z 11004KT 26/14 A3022 RMK A01 T02580143  RH  049%=      5-min Rain = 0
KPA1 141829Z 08004KT 26/14 A3022 RMK A01 T02570144  RH  050%=      5-min Rain = 0
KPA1 141830Z 09004KT 26/14 A3023 RMK A01 T02570142  RH  049%=      5-min Rain = 0
KPA1 141831Z 08003KT 26/14 A3023 RMK A01 T02570137  RH  047%=      5-min Rain = 0
KPA1 141832Z 09003KT 26/14 A3023 RMK A01 T02570135  RH  047%=      5-min Rain = 0
KPA1 141833Z 08002KT 26/13 A3023 RMK A01 T02570131  RH  045%=      5-min Rain = 0
KPA1 141834Z 07003KT 26/13 A3022 RMK A01 T02570134  RH  046%=      5-min Rain = 0
KPA1 141835Z 07002KT 26/14 A3022 RMK A01 T02580135  RH  046%=      5-min Rain = 0
KPA1 141836Z 05003KT 26/14 A3022 RMK A01 T02590138  RH  047%=      5-min Rain = 0
KPA1 141837Z 05003KT 26/14 A3022 RMK A01 T02610135  RH  046%=      5-min Rain = 0
KPA1 141838Z 06003KT 26/14 A3023 RMK A01 T02640135  RH  045%=      5-min Rain = 0
KPA1 141839Z 05002KT 27/14 A3023 RMK A01 T02650135  RH  045%=      5-min Rain = 0
KPA1 141840Z 05000KT 27/14 A3023 RMK A01 T02660137  RH  045%=      5-min Rain = 0
KPA1 141841Z 16001KT 27/14 A3023 RMK A01 T02690137  RH  044%=      5-min Rain = 0
KPA1 141842Z 09000KT 27/14 A3023 RMK A01 T02710135  RH  043%=      5-min Rain = 0
KPA1 141843Z 08002KT 27/14 A3023 RMK A01 T02730140  RH  044%=      5-min Rain = 0
KPA1 141844Z 06002KT 28/14 A3022 RMK A01 T02750139  RH  043%=      5-min Rain = 0
KPA1 141845Z 06004KT 28/14 A3022 RMK A01 T02750143  RH  044%=      5-min Rain = 0
KPA1 141846Z 06002KT 27/15 A3022 RMK A01 T02730145  RH  045%=      5-min Rain = 0
KPA1 141847Z 02002KT 27/15 A3022 RMK A01 T02730149  RH  047%=      5-min Rain = 0
KPA1 141848Z 04004KT 27/15 A3022 RMK A01 T02730148  RH  046%=      5-min Rain = 0
KPA1 141849Z 03005KT 27/15 A3022 RMK A01 T02720149  RH  047%=      5-min Rain = 0
KPA1 141850Z 02004KT 27/14 A3022 RMK A01 T02700144  RH  046%=      5-min Rain = 0
KPA1 141851Z 02002KT 27/14 A3022 RMK A01 T02670140  RH  045%=      5-min Rain = 0
KPA1 141852Z 01002KT 27/14 A3022 RMK A01 T02660143  RH  047%=      5-min Rain = 0
KPA1 141853Z 03002KT 27/15 A3022 RMK A01 T02670146  RH  047%=      5-min Rain = 0
KPA1 141854Z 06003KT 27/15 A3022 RMK A01 T02680148  RH  048%=      5-min Rain = 0
KPA1 141855Z 10003KT 27/15 A3022 RMK A01 T02690145  RH  046%=      5-min Rain = 0
KPA1 141856Z 09002KT 27/15 A3022 RMK A01 T02700146  RH  047%=      5-min Rain = 0
KPA1 141857Z 10003KT 27/14 A3022 RMK A01 T02710142  RH  045%=      5-min Rain = 0
KPA1 141858Z 08003KT 27/14 A3022 RMK A01 T02690143  RH  046%=      5-min Rain = 0
KPA1 141859Z 06002KT 27/14 A3022 RMK A01 T02690144  RH  046%=      5-min Rain = 0
KPA1 141900Z 07002KT 27/14 A3022 RMK A01 T02690143  RH  046%=      5-min Rain = 0
KPA1 141901Z 05001KT 27/14 A3022 RMK A01 T02680142  RH  046%=      5-min Rain = 0
KPA1 141902Z 05001KT 27/14 A3022 RMK A01 T02680144  RH  047%=      5-min Rain = 0
KPA1 141903Z 04002KT 27/15 A3022 RMK A01 T02690146  RH  047%=      5-min Rain = 0
KPA1 141904Z 06003KT 27/15 A3022 RMK A01 T02710150  RH  047%=      5-min Rain = 0
KPA1 141905Z 06003KT 27/15 A3022 RMK A01 T02730151  RH  047%=      5-min Rain = 0
KPA1 141906Z 09004KT 28/15 A3022 RMK A01 T02750150  RH  046%=      5-min Rain = 0
KPA1 141907Z 07004KT 28/15 A3022 RMK A01 T02760149  RH  046%=      5-min Rain = 0
KPA1 141908Z 03004KT 28/15 A3022 RMK A01 T02750147  RH  046%=      5-min Rain = 0
KPA1 141909Z 01002KT 27/15 A3022 RMK A01 T02730145  RH  045%=      5-min Rain = 0
KPA1 141910Z 34002KT 27/14 A3022 RMK A01 T02700143  RH  046%=      5-min Rain = 0
KPA1 141911Z 33001KT 27/14 A3022 RMK A01 T02700143  RH  046%=      5-min Rain = 0
KPA1 141912Z 29002KT 27/14 A3022 RMK A01 T02690143  RH  046%=      5-min Rain = 0
KPA1 141913Z 30001KT 27/14 A3022 RMK A01 T02690144  RH  046%=      5-min Rain = 0
KPA1 141914Z 31002KT 27/15 A3022 RMK A01 T02700145  RH  046%=      5-min Rain = 0
KPA1 141915Z 32001KT 27/14 A3022 RMK A01 T02710144  RH  046%=      5-min Rain = 0
KPA1 141916Z 30001KT 27/15 A3022 RMK A01 T02720147  RH  046%=      5-min Rain = 0
KPA1 141917Z 28002KT 27/15 A3022 RMK A01 T02730145  RH  045%=      5-min Rain = 0
KPA1 141918Z 27001KT 27/14 A3022 RMK A01 T02730143  RH  045%=      5-min Rain = 0
KPA1 141919Z 30000KT 27/14 A3022 RMK A01 T02730142  RH  045%=      5-min Rain = 0
KPA1 141920Z 04002KT 27/15 A3022 RMK A01 T02740149  RH  046%=      5-min Rain = 0
KPA1 141921Z 07000KT 28/15 A3022 RMK A01 T02770149  RH  046%=      5-min Rain = 0
KPA1 141922Z 11002KT 28/15 A3022 RMK A01 T02790145  RH  044%=      5-min Rain = 0
KPA1 141923Z 10003KT 28/14 A3022 RMK A01 T02780141  RH  043%=      5-min Rain = 0
KPA1 141924Z 12003KT 28/15 A3022 RMK A01 T02780147  RH  045%=      5-min Rain = 0
KPA1 141925Z 12003KT 28/15 A3022 RMK A01 T02800151  RH  045%=      5-min Rain = 0
KPA1 141926Z 11003KT 28/15 A3022 RMK A01 T02820148  RH  044%=      5-min Rain = 0
KPA1 141927Z 16002KT 28/15 A3022 RMK A01 T02830145  RH  043%=      5-min Rain = 0
KPA1 141928Z 12005KT 28/15 A3022 RMK A01 T02820147  RH  044%=      5-min Rain = 0
KPA1 141929Z 13004KT 28/15 A3021 RMK A01 T02810145  RH  043%=      5-min Rain = 0
KPA1 141930Z 12004KT 28/15 A3021 RMK A01 T02790145  RH  044%=      5-min Rain = 0
KPA1 141931Z 13005KT 28/15 A3021 RMK A01 T02780148  RH  045%=      5-min Rain = 0
KPA1 141932Z 13004KT 28/15 A3021 RMK A01 T02800145  RH  044%=      5-min Rain = 0
KPA1 141933Z 10003KT 28/14 A3021 RMK A01 T02800144  RH  043%=      5-min Rain = 0
KPA1 141934Z 10003KT 28/14 A3021 RMK A01 T02790143  RH  043%=      5-min Rain = 0
KPA1 141935Z 08003KT 28/14 A3021 RMK A01 T02790141  RH  043%=      5-min Rain = 0
KPA1 141936Z 04002KT 28/14 A3021 RMK A01 T02780143  RH  043%=      5-min Rain = 0
KPA1 141937Z 04004KT 28/14 A3021 RMK A01 T02790143  RH  043%=      5-min Rain = 0
KPA1 141938Z 05003KT 28/14 A3021 RMK A01 T02790141  RH  043%=      5-min Rain = 0
KPA1 141939Z 08001KT 28/14 A3021 RMK A01 T02780142  RH  043%=      5-min Rain = 0
KPA1 141940Z 11003KT 28/14 A3021 RMK A01 T02800143  RH  043%=      5-min Rain = 0
KPA1 141941Z 11002KT 28/14 A3021 RMK A01 T02810142  RH  042%=      5-min Rain = 0
KPA1 141942Z 13001KT 28/15 A3021 RMK A01 T02820147  RH  044%=      5-min Rain = 0
KPA1 141943Z 10000KT 28/15 A3021 RMK A01 T02840152  RH  045%=      5-min Rain = 0
KPA1 141944Z 04000KT 29/15 A3021 RMK A01 T02880153  RH  044%=      5-min Rain = 0
KPA1 141945Z 05001KT 29/15 A3021 RMK A01 T02890146  RH  042%=      5-min Rain = 0
KPA1 141946Z 05000KT 29/15 A3021 RMK A01 T02870146  RH  042%=      5-min Rain = 0
KPA1 141947Z 04001KT 29/15 A3021 RMK A01 T02870148  RH  043%=      5-min Rain = 0
KPA1 141948Z 07004KT 29/15 A3021 RMK A01 T02870148  RH  043%=      5-min Rain = 0
KPA1 141949Z 08005KT 29/15 A3021 RMK A01 T02870149  RH  043%=      5-min Rain = 0
KPA1 141950Z 08005KT 29/15 A3021 RMK A01 T02860147  RH  043%=      5-min Rain = 0
KPA1 141951Z 08004KT 29/15 A3021 RMK A01 T02860148  RH  043%=      5-min Rain = 0
KPA1 141952Z 12005KT 29/15 A3021 RMK A01 T02860145  RH  042%=      5-min Rain = 0
KPA1 141953Z 11004KT 29/15 A302 RMK A01 T02870145  RH  042%=      5-min Rain = 0
KPA1 141954Z 08005KT 29/14 A302 RMK A01 T02870140  RH  041%=      5-min Rain = 0
KPA1 141955Z 09004KT 29/14 A302 RMK A01 T02860140  RH  041%=      5-min Rain = 0
KPA1 141956Z 08004KT 28/14 A302 RMK A01 T02840141  RH  042%=      5-min Rain = 0
KPA1 141957Z 09005KT 28/14 A302 RMK A01 T02840140  RH  041%=      5-min Rain = 0
KPA1 141958Z 11005KT 28/14 A302 RMK A01 T02840139  RH  041%=      5-min Rain = 0
KPA1 141959Z 11003KT 28/14 A302 RMK A01 T02840139  RH  041%=      5-min Rain = 0
KPA1 142000Z 08004KT 29/14 A302 RMK A01 T02850143  RH  042%=      5-min Rain = 0
KPA1 142001Z 09005KT 29/14 A302 RMK A01 T02860141  RH  041%=      5-min Rain = 0
KPA1 142002Z 07004KT 29/14 A302 RMK A01 T02860140  RH  041%=      5-min Rain = 0
KPA1 142003Z 07001KT 28/14 A302 RMK A01 T02840137  RH  040%=      5-min Rain = 0
KPA1 142004Z 15001KT 28/14 A302 RMK A01 T02830138  RH  041%=      5-min Rain = 0
KPA1 142005Z 14002KT 28/14 A302 RMK A01 T02840139  RH  041%=      5-min Rain = 0
KPA1 142006Z 11002KT 29/14 A302 RMK A01 T02850139  RH  041%=      5-min Rain = 0
KPA1 142007Z 10001KT 29/14 A302 RMK A01 T02860139  RH  040%=      5-min Rain = 0
KPA1 142008Z 07002KT 29/14 A302 RMK A01 T02880144  RH  041%=      5-min Rain = 0
KPA1 142009Z 05002KT 29/14 A302 RMK A01 T02890143  RH  041%=      5-min Rain = 0
KPA1 142010Z 04004KT 29/14 A302 RMK A01 T02900142  RH  040%=      5-min Rain = 0
KPA1 142011Z 05004KT 29/14 A302 RMK A01 T02890143  RH  041%=      5-min Rain = 0
KPA1 142012Z 06005KT 29/14 A302 RMK A01 T02880143  RH  041%=      5-min Rain = 0
KPA1 142013Z 05005KT 29/14 A302 RMK A01 T02880139  RH  040%=      5-min Rain = 0
KPA1 142014Z 06003KT 29/14 A302 RMK A01 T02870135  RH  039%=      5-min Rain = 0
KPA1 142015Z 09004KT 29/14 A302 RMK A01 T02860137  RH  040%=      5-min Rain = 0
KPA1 142016Z 11002KT 29/14 A302 RMK A01 T02860135  RH  039%=      5-min Rain = 0
KPA1 142017Z 16002KT 29/13 A302 RMK A01 T02860132  RH  039%=      5-min Rain = 0
KPA1 142018Z 08002KT 29/14 A3019 RMK A01 T02860137  RH  040%=      5-min Rain = 0
KPA1 142019Z 07000KT 29/13 A3019 RMK A01 T02870132  RH  038%=      5-min Rain = 0
KPA1 142020Z 06000KT 29/13 A3019 RMK A01 T02880134  RH  039%=      5-min Rain = 0
KPA1 142021Z 04003KT 29/14 A3019 RMK A01 T02900142  RH  040%=      5-min Rain = 0
KPA1 142022Z 04004KT 29/14 A3019 RMK A01 T02910140  RH  040%=      5-min Rain = 0
KPA1 142023Z 06005KT 29/14 A3019 RMK A01 T02910139  RH  039%=      5-min Rain = 0
KPA1 142024Z 07005KT 29/14 A3019 RMK A01 T02900140  RH  040%=      5-min Rain = 0
KPA1 142025Z 08004KT 29/14 A3019 RMK A01 T02890142  RH  041%=      5-min Rain = 0
KPA1 142026Z 07005KT 29/14 A3019 RMK A01 T02890140  RH  040%=      5-min Rain = 0
KPA1 142027Z 07004KT 29/14 A3019 RMK A01 T02880141  RH  040%=      5-min Rain = 0
KPA1 142028Z 06006KT 29/14 A3019 RMK A01 T02890142  RH  041%=      5-min Rain = 0
KPA1 142029Z 06005KT 29/14 A3019 RMK A01 T02890140  RH  040%=      5-min Rain = 0
KPA1 142030Z 03005KT 29/14 A3019 RMK A01 T02870142  RH  041%=      5-min Rain = 0
KPA1 142031Z 03006KT 29/14 A3019 RMK A01 T02870144  RH  042%=      5-min Rain = 0
KPA1 142032Z 03003KT 29/14 A3019 RMK A01 T02860141  RH  041%=      5-min Rain = 0
KPA1 142033Z 08002KT 29/15 A3019 RMK A01 T02860145  RH  042%=      5-min Rain = 0
KPA1 142034Z 09006KT 29/15 A3019 RMK A01 T02860146  RH  042%=      5-min Rain = 0
KPA1 142035Z 08004KT 29/14 A3019 RMK A01 T02870141  RH  041%=      5-min Rain = 0
KPA1 142036Z 09005KT 29/14 A3019 RMK A01 T02880143  RH  041%=      5-min Rain = 0
KPA1 142037Z 09004KT 29/14 A3019 RMK A01 T02890140  RH  040%=      5-min Rain = 0
KPA1 142038Z 10004KT 29/14 A3019 RMK A01 T02890142  RH  040%=      5-min Rain = 0
KPA1 142039Z 12002KT 29/14 A3019 RMK A01 T02900140  RH  040%=      5-min Rain = 0
KPA1 142040Z 08002KT 29/14 A3019 RMK A01 T02910139  RH  039%=      5-min Rain = 0
KPA1 142041Z 08002KT 29/14 A3019 RMK A01 T02910139  RH  039%=      5-min Rain = 0
KPA1 142042Z 13002KT 29/14 A3019 RMK A01 T02910141  RH  040%=      5-min Rain = 0
KPA1 142043Z 09002KT 29/14 A3019 RMK A01 T02930137  RH  038%=      5-min Rain = 0
KPA1 142044Z 09001KT 29/14 A3019 RMK A01 T02930135  RH  038%=      5-min Rain = 0
KPA1 142045Z 10002KT 29/14 A3019 RMK A01 T02940139  RH  039%=      5-min Rain = 0
KPA1 142046Z 09001KT 29/14 A3019 RMK A01 T02940136  RH  038%=      5-min Rain = 0
KPA1 142047Z 11001KT 29/14 A3019 RMK A01 T02940138  RH  038%=      5-min Rain = 0
KPA1 142048Z 06002KT 30/14 A3019 RMK A01 T02950139  RH  038%=      5-min Rain = 0
KPA1 142049Z 05004KT 30/14 A3019 RMK A01 T02960140  RH  039%=      5-min Rain = 0
KPA1 142050Z 03003KT 29/14 A3019 RMK A01 T02940138  RH  038%=      5-min Rain = 0
KPA1 142051Z 03004KT 29/14 A3019 RMK A01 T02920137  RH  039%=      5-min Rain = 0
KPA1 142052Z 08003KT 29/14 A3019 RMK A01 T02920139  RH  039%=      5-min Rain = 0
KPA1 142053Z 07004KT 29/14 A3019 RMK A01 T02910143  RH  040%=      5-min Rain = 0
KPA1 142054Z 08004KT 29/15 A3019 RMK A01 T02920146  RH  041%=      5-min Rain = 0
KPA1 142055Z 08004KT 29/14 A3019 RMK A01 T02930138  RH  039%=      5-min Rain = 0
KPA1 142056Z 07003KT 29/14 A3018 RMK A01 T02920141  RH  040%=      5-min Rain = 0
KPA1 142057Z 08002KT 29/14 A3018 RMK A01 T02910142  RH  040%=      5-min Rain = 0
KPA1 142058Z 10003KT 29/15 A3018 RMK A01 T02930146  RH  041%=      5-min Rain = 0
KPA1 142059Z 08002KT 30/14 A3018 RMK A01 T02950143  RH  040%=      5-min Rain = 0
KPA1 142100Z 08002KT 29/14 A3018 RMK A01 T02940144  RH  040%=      5-min Rain = 0
KPA1 142101Z 08004KT 30/15 A3018 RMK A01 T02950149  RH  041%=      5-min Rain = 0
KPA1 142102Z 06003KT 30/14 A3018 RMK A01 T02950142  RH  039%=      5-min Rain = 0
KPA1 142103Z 06003KT 29/15 A3018 RMK A01 T02940147  RH  041%=      5-min Rain = 0
KPA1 142104Z 05004KT 29/15 A3018 RMK A01 T02940145  RH  040%=      5-min Rain = 0
KPA1 142105Z 03004KT 29/14 A3018 RMK A01 T02940138  RH  038%=      5-min Rain = 0
KPA1 142106Z 03004KT 29/14 A3018 RMK A01 T02930136  RH  038%=      5-min Rain = 0
KPA1 142107Z 02005KT 29/13 A3018 RMK A01 T02910133  RH  038%=      5-min Rain = 0
KPA1 142108Z 04003KT 29/14 A3018 RMK A01 T02900136  RH  039%=      5-min Rain = 0
KPA1 142109Z 03002KT 29/14 A3018 RMK A01 T02900137  RH  039%=      5-min Rain = 0
KPA1 142110Z 04003KT 29/14 A3018 RMK A01 T02920138  RH  039%=      5-min Rain = 0
KPA1 142111Z 03001KT 29/14 A3018 RMK A01 T02930137  RH  038%=      5-min Rain = 0
KPA1 142112Z 34001KT 29/13 A3018 RMK A01 T02940132  RH  037%=      5-min Rain = 0
KPA1 142113Z 33001KT 29/14 A3018 RMK A01 T02940137  RH  038%=      5-min Rain = 0
KPA1 142114Z 01001KT 30/13 A3018 RMK A01 T02960134  RH  037%=      5-min Rain = 0
KPA1 142115Z 01002KT 30/14 A3018 RMK A01 T02960138  RH  038%=      5-min Rain = 0
KPA1 142116Z 01001KT 30/14 A3018 RMK A01 T02960136  RH  038%=      5-min Rain = 0
KPA1 142117Z 04002KT 30/14 A3018 RMK A01 T02960137  RH  038%=      5-min Rain = 0
KPA1 142118Z 05002KT 30/14 A3018 RMK A01 T02950136  RH  038%=      5-min Rain = 0
KPA1 142119Z 05004KT 30/14 A3018 RMK A01 T02950140  RH  039%=      5-min Rain = 0
KPA1 142120Z 05003KT 30/14 A3018 RMK A01 T02960136  RH  038%=      5-min Rain = 0
KPA1 142121Z 03003KT 30/14 A3018 RMK A01 T02960138  RH  038%=      5-min Rain = 0
KPA1 142122Z 03003KT 30/14 A3018 RMK A01 T02970135  RH  037%=      5-min Rain = 0
KPA1 142123Z 04002KT 30/14 A3018 RMK A01 T02980139  RH  038%=      5-min Rain = 0
KPA1 142124Z 05002KT 30/13 A3018 RMK A01 T02980133  RH  036%=      5-min Rain = 0
KPA1 142125Z 02002KT 30/14 A3017 RMK A01 T02970138  RH  038%=      5-min Rain = 0
KPA1 142126Z 08005KT 30/14 A3017 RMK A01 T02980142  RH  039%=      5-min Rain = 0
KPA1 142127Z 09003KT 30/14 A3017 RMK A01 T02990141  RH  038%=      5-min Rain = 0
KPA1 142128Z 11002KT 30/14 A3017 RMK A01 T03000136  RH  037%=      5-min Rain = 0
KPA1 142129Z 12001KT 30/13 A3017 RMK A01 T02990134  RH  036%=      5-min Rain = 0
KPA1 142130Z 11000KT 30/14 A3017 RMK A01 T02980138  RH  038%=      5-min Rain = 0
KPA1 142131Z 11000KT 30/14 A3017 RMK A01 T02990136  RH  037%=      5-min Rain = 0
KPA1 142132Z 11003KT 30/14 A3017 RMK A01 T03000137  RH  037%=      5-min Rain = 0
KPA1 142133Z 11003KT 30/14 A3017 RMK A01 T03010136  RH  036%=      5-min Rain = 0
KPA1 142134Z 09003KT 30/14 A3017 RMK A01 T03000136  RH  037%=      5-min Rain = 0
KPA1 142135Z 12001KT 30/14 A3017 RMK A01 T03000140  RH  038%=      5-min Rain = 0
KPA1 142136Z 12003KT 30/14 A3017 RMK A01 T03010140  RH  037%=      5-min Rain = 0
KPA1 142137Z 09002KT 30/14 A3017 RMK A01 T03020135  RH  036%=      5-min Rain = 0
KPA1 142138Z 06001KT 30/13 A3017 RMK A01 T03000134  RH  036%=      5-min Rain = 0
KPA1 142139Z 34000KT 30/14 A3017 RMK A01 T02990135  RH  037%=      5-min Rain = 0
KPA1 142140Z 29002KT 30/14 A3017 RMK A01 T02980141  RH  038%=      5-min Rain = 0
KPA1 142141Z 29004KT 30/14 A3017 RMK A01 T02990140  RH  038%=      5-min Rain = 0
KPA1 142142Z 28002KT 30/14 A3017 RMK A01 T03000138  RH  037%=      5-min Rain = 0
KPA1 142143Z 22004KT 30/14 A3017 RMK A01 T03010138  RH  037%=      5-min Rain = 0
KPA1 142144Z 21004KT 30/14 A3016 RMK A01 T03020143  RH  038%=      5-min Rain = 0
KPA1 142145Z 21005KT 30/14 A3016 RMK A01 T03040140  RH  037%=      5-min Rain = 0
KPA1 142146Z 20005KT 30/14 A3016 RMK A01 T03040139  RH  036%=      5-min Rain = 0
KPA1 142147Z 19004KT 30/14 A3016 RMK A01 T03030137  RH  036%=      5-min Rain = 0
KPA1 142148Z 18004KT 30/14 A3016 RMK A01 T03030137  RH  036%=      5-min Rain = 0
KPA1 142149Z 19005KT 30/14 A3016 RMK A01 T03040141  RH  037%=      5-min Rain = 0
KPA1 142150Z 20004KT 31/14 A3016 RMK A01 T03060141  RH  037%=      5-min Rain = 0
KPA1 142151Z 20003KT 31/14 A3016 RMK A01 T03060136  RH  035%=      5-min Rain = 0
KPA1 142152Z 22002KT 31/14 A3016 RMK A01 T03050136  RH  036%=      5-min Rain = 0
KPA1 142153Z 18002KT 30/13 A3016 RMK A01 T03030131  RH  035%=      5-min Rain = 0
KPA1 142154Z 17000KT 30/13 A3016 RMK A01 T03010132  RH  035%=      5-min Rain = 0
KPA1 142155Z 12000KT 30/14 A3016 RMK A01 T03010136  RH  036%=      5-min Rain = 0
KPA1 142156Z 07002KT 30/14 A3016 RMK A01 T03020140  RH  037%=      5-min Rain = 0
KPA1 142157Z 05005KT 30/15 A3016 RMK A01 T03030145  RH  038%=      5-min Rain = 0
KPA1 142158Z 06006KT 31/14 A3016 RMK A01 T03050141  RH  037%=      5-min Rain = 0
KPA1 142159Z 07006KT 30/15 A3016 RMK A01 T03040145  RH  038%=      5-min Rain = 0
KPA1 142200Z 07004KT 30/14 A3016 RMK A01 T03040140  RH  037%=      5-min Rain = 0
KPA1 142201Z 07003KT 30/14 A3016 RMK A01 T03030138  RH  037%=      5-min Rain = 0
KPA1 142202Z 08002KT 30/14 A3016 RMK A01 T03020141  RH  037%=      5-min Rain = 0
KPA1 142203Z 09004KT 30/14 A3016 RMK A01 T03020140  RH  037%=      5-min Rain = 0
KPA1 142204Z 12004KT 30/14 A3016 RMK A01 T03020139  RH  037%=      5-min Rain = 0
KPA1 142205Z 10003KT 30/14 A3015 RMK A01 T03020141  RH  037%=      5-min Rain = 0
KPA1 142206Z 09001KT 30/14 A3015 RMK A01 T03030139  RH  037%=      5-min Rain = 0
KPA1 142207Z 11003KT 30/14 A3015 RMK A01 T03030142  RH  037%=      5-min Rain = 0
KPA1 142208Z 12002KT 30/14 A3015 RMK A01 T03030141  RH  037%=      5-min Rain = 0
KPA1 142209Z 13003KT 30/15 A3015 RMK A01 T03040145  RH  038%=      5-min Rain = 0
KPA1 142210Z 12003KT 31/14 A3015 RMK A01 T03050140  RH  037%=      5-min Rain = 0
KPA1 142211Z 11004KT 31/14 A3015 RMK A01 T03060141  RH  037%=      5-min Rain = 0
KPA1 142212Z 11002KT 31/14 A3015 RMK A01 T03050139  RH  036%=      5-min Rain = 0
KPA1 142213Z 11002KT 31/14 A3015 RMK A01 T03050137  RH  036%=      5-min Rain = 0
KPA1 142214Z 12000KT 30/14 A3015 RMK A01 T03040136  RH  036%=      5-min Rain = 0
KPA1 142215Z 00000KT 30/14 A3015 RMK A01 T03040136  RH  036%=      5-min Rain = 0
KPA1 142216Z 04001KT 31/14 A3015 RMK A01 T03050139  RH  036%=      5-min Rain = 0
KPA1 142217Z 05001KT 31/14 A3015 RMK A01 T03060143  RH  037%=      5-min Rain = 0
KPA1 142218Z 08004KT 31/14 A3015 RMK A01 T03060143  RH  037%=      5-min Rain = 0
KPA1 142219Z 07004KT 31/14 A3015 RMK A01 T03050137  RH  036%=      5-min Rain = 0
KPA1 142220Z 09003KT 30/14 A3015 RMK A01 T03030137  RH  036%=      5-min Rain = 0
KPA1 142221Z 08001KT 30/14 A3015 RMK A01 T03010138  RH  037%=      5-min Rain = 0
KPA1 142222Z 15003KT 30/14 A3015 RMK A01 T03020138  RH  037%=      5-min Rain = 0
KPA1 142223Z 17003KT 30/14 A3015 RMK A01 T03030136  RH  036%=      5-min Rain = 0
KPA1 142224Z 12002KT 30/13 A3015 RMK A01 T03040134  RH  036%=      5-min Rain = 0
KPA1 142225Z 10003KT 30/14 A3015 RMK A01 T03040139  RH  037%=      5-min Rain = 0
KPA1 142226Z 09005KT 30/14 A3015 RMK A01 T03040141  RH  037%=      5-min Rain = 0
KPA1 142227Z 08004KT 31/14 A3015 RMK A01 T03050136  RH  036%=      5-min Rain = 0
KPA1 142228Z 12005KT 30/14 A3015 RMK A01 T03040139  RH  036%=      5-min Rain = 0
KPA1 142229Z 12006KT 30/13 A3015 RMK A01 T03040134  RH  035%=      5-min Rain = 0
KPA1 142230Z 12004KT 31/13 A3015 RMK A01 T03050133  RH  035%=      5-min Rain = 0
KPA1 142231Z 12003KT 30/14 A3015 RMK A01 T03040136  RH  036%=      5-min Rain = 0
KPA1 142232Z 12005KT 30/14 A3015 RMK A01 T03040138  RH  036%=      5-min Rain = 0
KPA1 142233Z 12006KT 31/14 A3015 RMK A01 T03050136  RH  036%=      5-min Rain = 0
KPA1 142234Z 11005KT 30/14 A3015 RMK A01 T03040135  RH  035%=      5-min Rain = 0
KPA1 142235Z 10004KT 30/13 A3015 RMK A01 T03040133  RH  035%=      5-min Rain = 0
KPA1 142236Z 08002KT 30/13 A3015 RMK A01 T03020134  RH  036%=      5-min Rain = 0
KPA1 142237Z 06001KT 30/14 A3015 RMK A01 T03020136  RH  036%=      5-min Rain = 0
KPA1 142238Z 00000KT 30/14 A3015 RMK A01 T03020137  RH  036%=      5-min Rain = 0
KPA1 142239Z 04000KT 30/14 A3015 RMK A01 T03030138  RH  036%=      5-min Rain = 0
KPA1 142240Z 11000KT 31/13 A3015 RMK A01 T03050134  RH  035%=      5-min Rain = 0
KPA1 142241Z 14001KT 31/14 A3015 RMK A01 T03060135  RH  035%=      5-min Rain = 0
KPA1 142242Z 19000KT 31/14 A3015 RMK A01 T03060137  RH  035%=      5-min Rain = 0
KPA1 142243Z 12001KT 31/14 A3015 RMK A01 T03070137  RH  035%=      5-min Rain = 0
KPA1 142244Z 05004KT 31/14 A3015 RMK A01 T03090140  RH  036%=      5-min Rain = 0
KPA1 142245Z 05004KT 31/14 A3015 RMK A01 T03090135  RH  035%=      5-min Rain = 0
KPA1 142246Z 04003KT 31/13 A3015 RMK A01 T03060134  RH  035%=      5-min Rain = 0
KPA1 142247Z 04002KT 31/14 A3015 RMK A01 T03050136  RH  035%=      5-min Rain = 0
KPA1 142248Z 04002KT 31/13 A3015 RMK A01 T03050132  RH  035%=      5-min Rain = 0
KPA1 142249Z 04000KT 31/14 A3015 RMK A01 T03050136  RH  036%=      5-min Rain = 0
KPA1 142250Z 04000KT 31/13 A3015 RMK A01 T03060131  RH  034%=      5-min Rain = 0
KPA1 142251Z 04001KT 31/13 A3015 RMK A01 T03080128  RH  033%=      5-min Rain = 0
KPA1 142252Z 04002KT 31/13 A3014 RMK A01 T03090133  RH  034%=      5-min Rain = 0
KPA1 142253Z 04001KT 31/14 A3014 RMK A01 T03100135  RH  035%=      5-min Rain = 0
KPA1 142254Z 04000KT 31/13 A3014 RMK A01 T03090133  RH  034%=      5-min Rain = 0
KPA1 142255Z 05002KT 31/14 A3014 RMK A01 T03090135  RH  035%=      5-min Rain = 0
KPA1 142256Z 05003KT 31/14 A3014 RMK A01 T03090138  RH  035%=      5-min Rain = 0
KPA1 142257Z 06003KT 31/14 A3014 RMK A01 T03090137  RH  035%=      5-min Rain = 0
KPA1 142258Z 07002KT 31/14 A3014 RMK A01 T03080136  RH  035%=      5-min Rain = 0
KPA1 142259Z 09003KT 31/14 A3014 RMK A01 T03090135  RH  035%=      5-min Rain = 0
KPA1 142300Z 08003KT 31/14 A3014 RMK A01 T03080139  RH  036%=      5-min Rain = 0
KPA1 142301Z 08003KT 31/13 A3014 RMK A01 T03070134  RH  035%=      5-min Rain = 0
KPA1 142302Z 08003KT 31/14 A3014 RMK A01 T03050136  RH  036%=      5-min Rain = 0
KPA1 142303Z 07003KT 31/14 A3014 RMK A01 T03050138  RH  036%=      5-min Rain = 0
KPA1 142304Z 07003KT 30/13 A3014 RMK A01 T03040134  RH  035%=      5-min Rain = 0
KPA1 142305Z 07004KT 30/14 A3014 RMK A01 T03040138  RH  036%=      5-min Rain = 0
KPA1 142306Z 10004KT 30/14 A3014 RMK A01 T03040135  RH  036%=      5-min Rain = 0
KPA1 142307Z 09003KT 30/13 A3014 RMK A01 T03040134  RH  035%=      5-min Rain = 0
KPA1 142308Z 06003KT 30/14 A3014 RMK A01 T03040135  RH  036%=      5-min Rain = 0
KPA1 142309Z 06003KT 30/13 A3014 RMK A01 T03040131  RH  035%=      5-min Rain = 0
KPA1 142310Z 06003KT 30/13 A3014 RMK A01 T03040133  RH  035%=      5-min Rain = 0
KPA1 142311Z 08003KT 30/14 A3014 RMK A01 T03030135  RH  036%=      5-min Rain = 0
KPA1 142312Z 08003KT 30/14 A3014 RMK A01 T03030135  RH  036%=      5-min Rain = 0
KPA1 142313Z 06002KT 30/14 A3014 RMK A01 T03030136  RH  036%=      5-min Rain = 0
KPA1 142314Z 07003KT 30/14 A3014 RMK A01 T03040138  RH  036%=      5-min Rain = 0
KPA1 142315Z 09002KT 31/14 A3014 RMK A01 T03050143  RH  037%=      5-min Rain = 0
KPA1 142316Z 11003KT 31/14 A3014 RMK A01 T03050139  RH  036%=      5-min Rain = 0
KPA1 142317Z 11003KT 31/14 A3014 RMK A01 T03050139  RH  036%=      5-min Rain = 0
KPA1 142318Z 10003KT 31/14 A3014 RMK A01 T03060136  RH  035%=      5-min Rain = 0
KPA1 142319Z 08004KT 31/14 A3014 RMK A01 T03060136  RH  036%=      5-min Rain = 0
KPA1 142320Z 07004KT 31/13 A3015 RMK A01 T03050134  RH  035%=      5-min Rain = 0
KPA1 142321Z 08003KT 30/13 A3015 RMK A01 T03040132  RH  035%=      5-min Rain = 0
KPA1 142322Z 10003KT 30/14 A3015 RMK A01 T03030136  RH  036%=      5-min Rain = 0
KPA1 142323Z 08003KT 30/14 A3015 RMK A01 T03040140  RH  037%=      5-min Rain = 0
KPA1 142324Z 08004KT 31/14 A3015 RMK A01 T03050142  RH  037%=      5-min Rain = 0
KPA1 142325Z 09003KT 31/13 A3015 RMK A01 T03050134  RH  035%=      5-min Rain = 0
KPA1 142326Z 10002KT 31/14 A3015 RMK A01 T03050135  RH  035%=      5-min Rain = 0
KPA1 142327Z 09004KT 30/14 A3015 RMK A01 T03040137  RH  036%=      5-min Rain = 0
KPA1 142328Z 09004KT 30/14 A3015 RMK A01 T03030138  RH  036%=      5-min Rain = 0
KPA1 142329Z 10004KT 30/14 A3015 RMK A01 T03030135  RH  036%=      5-min Rain = 0
KPA1 142330Z 10004KT 30/14 A3014 RMK A01 T03030138  RH  036%=      5-min Rain = 0
KPA1 142331Z 08004KT 30/14 A3014 RMK A01 T03040138  RH  036%=      5-min Rain = 0
KPA1 142332Z 08004KT 30/14 A3014 RMK A01 T03040141  RH  037%=      5-min Rain = 0
KPA1 142333Z 08004KT 30/14 A3014 RMK A01 T03040135  RH  036%=      5-min Rain = 0
KPA1 142334Z 09004KT 30/14 A3014 RMK A01 T03030140  RH  037%=      5-min Rain = 0
KPA1 142335Z 08004KT 30/15 A3014 RMK A01 T03030145  RH  038%=      5-min Rain = 0
KPA1 142336Z 09004KT 30/15 A3014 RMK A01 T03030145  RH  038%=      5-min Rain = 0
KPA1 142337Z 08004KT 30/14 A3014 RMK A01 T03030142  RH  037%=      5-min Rain = 0
KPA1 142338Z 08004KT 30/14 A3014 RMK A01 T03040139  RH  037%=      5-min Rain = 0
KPA1 142339Z 07005KT 30/14 A3014 RMK A01 T03030142  RH  037%=      5-min Rain = 0
KPA1 142340Z 06005KT 30/15 A3014 RMK A01 T03020146  RH  039%=      5-min Rain = 0
KPA1 142341Z 07005KT 30/15 A3014 RMK A01 T03020146  RH  039%=      5-min Rain = 0
KPA1 142342Z 07005KT 30/15 A3014 RMK A01 T03010146  RH  039%=      5-min Rain = 0
KPA1 142343Z 07005KT 30/14 A3014 RMK A01 T03010142  RH  038%=      5-min Rain = 0
KPA1 142344Z 08004KT 30/14 A3014 RMK A01 T03010135  RH  036%=      5-min Rain = 0
KPA1 142345Z 08004KT 30/14 A3014 RMK A01 T03010138  RH  037%=      5-min Rain = 0
KPA1 142346Z 07004KT 30/15 A3014 RMK A01 T03020145  RH  039%=      5-min Rain = 0
KPA1 142347Z 07004KT 30/15 A3014 RMK A01 T03020147  RH  039%=      5-min Rain = 0
KPA1 142348Z 08004KT 30/14 A3014 RMK A01 T03020143  RH  038%=      5-min Rain = 0
KPA1 142349Z 07004KT 30/14 A3014 RMK A01 T03020138  RH  037%=      5-min Rain = 0
KPA1 142350Z 07004KT 30/14 A3014 RMK A01 T03020137  RH  036%=      5-min Rain = 0
KPA1 142351Z 07003KT 30/14 A3014 RMK A01 T03020140  RH  037%=      5-min Rain = 0
KPA1 142352Z 07004KT 30/14 A3013 RMK A01 T03020141  RH  037%=      5-min Rain = 0
KPA1 142353Z 07004KT 30/14 A3013 RMK A01 T03030143  RH  038%=      5-min Rain = 0
KPA1 142354Z 07004KT 30/15 A3013 RMK A01 T03020145  RH  038%=      5-min Rain = 0
KPA1 142355Z 08004KT 30/15 A3013 RMK A01 T03020149  RH  039%=      5-min Rain = 0
KPA1 142356Z 08004KT 30/14 A3013 RMK A01 T03020144  RH  038%=      5-min Rain = 0
KPA1 142357Z 08005KT 30/15 A3013 RMK A01 T03010148  RH  039%=      5-min Rain = 0
KPA1 142358Z 07004KT 30/15 A3013 RMK A01 T03010148  RH  039%=      5-min Rain = 0
KPA1 142359Z 07004KT 30/14 A3013 RMK A01 T03020141  RH  037%=      5-min Rain = 0
KPA1 150000Z 07003KT 30/14 A3013 RMK A01 T03020140  RH  037%=      5-min Rain = 0
KPA1 150001Z 08003KT 30/13 A3013 RMK A01 T03020134  RH  036%=      5-min Rain = 0
KPA1 150002Z 08002KT 30/14 A3013 RMK A01 T03020137  RH  036%=      5-min Rain = 0
KPA1 150003Z 08003KT 30/14 A3013 RMK A01 T03020138  RH  037%=      5-min Rain = 0
KPA1 150004Z 07003KT 30/15 A3013 RMK A01 T03020145  RH  038%=      5-min Rain = 0
KPA1 150005Z 07003KT 30/15 A3013 RMK A01 T03020147  RH  039%=      5-min Rain = 0
KPA1 150006Z 07003KT 30/14 A3013 RMK A01 T03020140  RH  037%=      5-min Rain = 0
KPA1 150007Z 07002KT 30/14 A3013 RMK A01 T03010137  RH  037%=      5-min Rain = 0
KPA1 150008Z 08002KT 30/14 A3014 RMK A01 T03010142  RH  038%=      5-min Rain = 0
KPA1 150009Z 08003KT 30/14 A3014 RMK A01 T03010139  RH  037%=      5-min Rain = 0
KPA1 150010Z 09002KT 30/14 A3014 RMK A01 T03010137  RH  037%=      5-min Rain = 0
KPA1 150011Z 08002KT 30/14 A3014 RMK A01 T03020144  RH  038%=      5-min Rain = 0
KPA1 150012Z 07001KT 30/15 A3014 RMK A01 T03020148  RH  039%=      5-min Rain = 0
KPA1 150013Z 06002KT 30/15 A3014 RMK A01 T03030153  RH  040%=      5-min Rain = 0
KPA1 150014Z 06002KT 30/15 A3014 RMK A01 T03030149  RH  039%=      5-min Rain = 0
KPA1 150015Z 05002KT 30/15 A3014 RMK A01 T03030152  RH  040%=      5-min Rain = 0
KPA1 150016Z 05002KT 30/15 A3014 RMK A01 T03020149  RH  039%=      5-min Rain = 0
KPA1 150017Z 05001KT 30/15 A3014 RMK A01 T03010149  RH  039%=      5-min Rain = 0
KPA1 150018Z 05001KT 30/15 A3014 RMK A01 T03010149  RH  040%=      5-min Rain = 0
KPA1 150019Z 06001KT 30/15 A3013 RMK A01 T03010151  RH  040%=      5-min Rain = 0
KPA1 150020Z 06002KT 30/15 A3013 RMK A01 T03010147  RH  039%=      5-min Rain = 0
KPA1 150021Z 04002KT 30/15 A3013 RMK A01 T03010154  RH  041%=      5-min Rain = 0
KPA1 150022Z 04001KT 30/15 A3013 RMK A01 T03010153  RH  040%=      5-min Rain = 0
KPA1 150023Z 04001KT 30/15 A3013 RMK A01 T03010149  RH  040%=      5-min Rain = 0
KPA1 150024Z 04001KT 30/15 A3013 RMK A01 T03020152  RH  040%=      5-min Rain = 0
KPA1 150025Z 04002KT 30/15 A3013 RMK A01 T03020148  RH  039%=      5-min Rain = 0
KPA1 150026Z 05002KT 30/15 A3013 RMK A01 T03020148  RH  039%=      5-min Rain = 0
KPA1 150027Z 05002KT 30/15 A3013 RMK A01 T03020151  RH  040%=      5-min Rain = 0
KPA1 150028Z 05002KT 30/14 A3013 RMK A01 T03020144  RH  038%=      5-min Rain = 0
KPA1 150029Z 05002KT 30/15 A3013 RMK A01 T03020148  RH  039%=      5-min Rain = 0
KPA1 150030Z 05002KT 30/15 A3013 RMK A01 T03020151  RH  040%=      5-min Rain = 0
KPA1 150031Z 05002KT 30/15 A3013 RMK A01 T03010151  RH  040%=      5-min Rain = 0
KPA1 150032Z 06003KT 30/16 A3013 RMK A01 T03010155  RH  041%=      5-min Rain = 0
KPA1 150033Z 08003KT 30/16 A3013 RMK A01 T03000157  RH  042%=      5-min Rain = 0
KPA1 150034Z 09005KT 30/15 A3013 RMK A01 T02990153  RH  041%=      5-min Rain = 0
KPA1 150035Z 09004KT 30/15 A3014 RMK A01 T02980153  RH  041%=      5-min Rain = 0
KPA1 150036Z 09004KT 30/16 A3014 RMK A01 T02960160  RH  044%=      5-min Rain = 0
KPA1 150037Z 09004KT 30/16 A3014 RMK A01 T02950160  RH  044%=      5-min Rain = 0
KPA1 150038Z 09004KT 29/16 A3014 RMK A01 T02930164  RH  046%=      5-min Rain = 0
KPA1 150039Z 09004KT 29/17 A3014 RMK A01 T02910166  RH  047%=      5-min Rain = 0
KPA1 150040Z 09005KT 29/17 A3014 RMK A01 T02900167  RH  048%=      5-min Rain = 0
KPA1 150041Z 09004KT 29/17 A3014 RMK A01 T02890168  RH  048%=      5-min Rain = 0
KPA1 150042Z 09005KT 29/17 A3014 RMK A01 T02880167  RH  048%=      5-min Rain = 0
KPA1 150043Z 09005KT 29/16 A3014 RMK A01 T02880162  RH  047%=      5-min Rain = 0
KPA1 150044Z 09005KT 29/16 A3014 RMK A01 T02880159  RH  046%=      5-min Rain = 0
KPA1 150045Z 09005KT 29/16 A3014 RMK A01 T02880156  RH  045%=      5-min Rain = 0
KPA1 150046Z 09004KT 29/16 A3014 RMK A01 T02880155  RH  045%=      5-min Rain = 0
KPA1 150047Z 09003KT 29/16 A3014 RMK A01 T02890156  RH  045%=      5-min Rain = 0
KPA1 150048Z 09004KT 29/16 A3014 RMK A01 T02890158  RH  045%=      5-min Rain = 0
KPA1 150049Z 10004KT 29/16 A3014 RMK A01 T02880162  RH  046%=      5-min Rain = 0
KPA1 150050Z 10004KT 29/16 A3014 RMK A01 T02870159  RH  046%=      5-min Rain = 0
KPA1 150051Z 10004KT 29/16 A3014 RMK A01 T02870159  RH  046%=      5-min Rain = 0
KPA1 150052Z 10004KT 29/16 A3014 RMK A01 T02870162  RH  047%=      5-min Rain = 0
KPA1 150053Z 11004KT 29/16 A3014 RMK A01 T02870163  RH  047%=      5-min Rain = 0
KPA1 150054Z 11005KT 29/17 A3014 RMK A01 T02860165  RH  048%=      5-min Rain = 0
KPA1 150055Z 12005KT 29/16 A3014 RMK A01 T02850161  RH  047%=      5-min Rain = 0
KPA1 150056Z 12005KT 29/16 A3014 RMK A01 T02850159  RH  046%=      5-min Rain = 0
KPA1 150057Z 12005KT 28/16 A3014 RMK A01 T02840159  RH  047%=      5-min Rain = 0
KPA1 150058Z 12005KT 28/16 A3014 RMK A01 T02830159  RH  047%=      5-min Rain = 0
KPA1 150059Z 12005KT 28/16 A3014 RMK A01 T02820160  RH  047%=      5-min Rain = 0
KPA1 150100Z 12005KT 28/16 A3014 RMK A01 T02810160  RH  048%=      5-min Rain = 0
KPA1 150101Z 12005KT 28/16 A3014 RMK A01 T02790163  RH  049%=      5-min Rain = 0
KPA1 150102Z 12005KT 28/17 A3014 RMK A01 T02770165  RH  050%=      5-min Rain = 0
KPA1 150103Z 12005KT 28/17 A3014 RMK A01 T02760166  RH  051%=      5-min Rain = 0
KPA1 150104Z 12005KT 27/17 A3014 RMK A01 T02740167  RH  052%=      5-min Rain = 0
KPA1 150105Z 12005KT 27/17 A3014 RMK A01 T02730167  RH  052%=      5-min Rain = 0
KPA1 150106Z 12005KT 27/17 A3014 RMK A01 T02720168  RH  053%=      5-min Rain = 0
KPA1 150107Z 12005KT 27/17 A3014 RMK A01 T02720168  RH  053%=      5-min Rain = 0
KPA1 150108Z 12005KT 27/17 A3014 RMK A01 T02710169  RH  054%=      5-min Rain = 0
KPA1 150109Z 12005KT 27/17 A3014 RMK A01 T02700170  RH  054%=      5-min Rain = 0
KPA1 150110Z 12005KT 27/17 A3014 RMK A01 T02680171  RH  055%=      5-min Rain = 0
KPA1 150111Z 12006KT 27/17 A3014 RMK A01 T02670172  RH  056%=      5-min Rain = 0
KPA1 150112Z 13006KT 27/17 A3014 RMK A01 T02660172  RH  056%=      5-min Rain = 0
KPA1 150113Z 12006KT 27/17 A3014 RMK A01 T02650173  RH  057%=      5-min Rain = 0
KPA1 150114Z 13006KT 26/17 A3014 RMK A01 T02640172  RH  057%=      5-min Rain = 0
KPA1 150115Z 12005KT 26/17 A3014 RMK A01 T02630172  RH  057%=      5-min Rain = 0
KPA1 150116Z 13005KT 26/17 A3014 RMK A01 T02620171  RH  057%=      5-min Rain = 0
KPA1 150117Z 13005KT 26/17 A3014 RMK A01 T02610171  RH  057%=      5-min Rain = 0
KPA1 150118Z 13005KT 26/17 A3014 RMK A01 T02610171  RH  057%=      5-min Rain = 0
KPA1 150119Z 13005KT 26/17 A3014 RMK A01 T02610170  RH  057%=      5-min Rain = 0
KPA1 150120Z 12006KT 26/17 A3014 RMK A01 T02610169  RH  057%=      5-min Rain = 0
KPA1 150121Z 12006KT 26/17 A3014 RMK A01 T02610169  RH  057%=      5-min Rain = 0
KPA1 150122Z 12006KT 26/17 A3014 RMK A01 T02610170  RH  057%=      5-min Rain = 0
KPA1 150123Z 12006KT 26/17 A3014 RMK A01 T02600171  RH  058%=      5-min Rain = 0
KPA1 150124Z 12006KT 26/17 A3014 RMK A01 T02590171  RH  058%=      5-min Rain = 0
KPA1 150125Z 12007KT 26/17 A3014 RMK A01 T02580172  RH  059%=      5-min Rain = 0
KPA1 150126Z 12007KT 26/17 A3014 RMK A01 T02570172  RH  059%=      5-min Rain = 0
KPA1 150127Z 12007KT 26/17 A3015 RMK A01 T02560172  RH  060%=      5-min Rain = 0
KPA1 150128Z 12006KT 26/17 A3015 RMK A01 T02550172  RH  060%=      5-min Rain = 0
KPA1 150129Z 12007KT 26/17 A3015 RMK A01 T02550171  RH  060%=      5-min Rain = 0
KPA1 150130Z 12007KT 25/17 A3015 RMK A01 T02540171  RH  060%=      5-min Rain = 0
KPA1 150131Z 12007KT 25/17 A3015 RMK A01 T02530171  RH  060%=      5-min Rain = 0
KPA1 150132Z 12008KT 25/17 A3015 RMK A01 T02530171  RH  060%=      5-min Rain = 0
KPA1 150133Z 12008KT 25/17 A3015 RMK A01 T02510169  RH  060%=      5-min Rain = 0
KPA1 150134Z 12008KT 25/17 A3015 RMK A01 T02510168  RH  060%=      5-min Rain = 0
KPA1 150135Z 13008KT 25/17 A3015 RMK A01 T02510167  RH  060%=      5-min Rain = 0
KPA1 150136Z 13008KT 25/17 A3015 RMK A01 T02510166  RH  059%=      5-min Rain = 0
KPA1 150137Z 13007KT 25/16 A3015 RMK A01 T02510164  RH  058%=      5-min Rain = 0
KPA1 150138Z 13008KT 25/16 A3015 RMK A01 T02510162  RH  058%=      5-min Rain = 0
KPA1 150139Z 13008KT 25/16 A3015 RMK A01 T02510160  RH  057%=      5-min Rain = 0
KPA1 150140Z 13007KT 25/16 A3015 RMK A01 T02520157  RH  055%=      5-min Rain = 0
KPA1 150141Z 13008KT 25/16 A3015 RMK A01 T02540156  RH  055%=      5-min Rain = 0
KPA1 150142Z 13008KT 25/16 A3015 RMK A01 T02540157  RH  055%=      5-min Rain = 0
KPA1 150143Z 13007KT 25/16 A3015 RMK A01 T02540159  RH  055%=      5-min Rain = 0
KPA1 150144Z 12008KT 25/16 A3015 RMK A01 T02540161  RH  056%=      5-min Rain = 0
KPA1 150145Z 12008KT 25/16 A3015 RMK A01 T02520161  RH  057%=      5-min Rain = 0
KPA1 150146Z 12008KT 25/16 A3015 RMK A01 T02510161  RH  057%=      5-min Rain = 0
KPA1 150147Z 12008KT 25/16 A3015 RMK A01 T02500160  RH  057%=      5-min Rain = 0
KPA1 150148Z 12008KT 25/16 A3015 RMK A01 T02500160  RH  057%=      5-min Rain = 0
KPA1 150149Z 12008KT 25/16 A3015 RMK A01 T02490160  RH  057%=      5-min Rain = 0
KPA1 150150Z 12008KT 25/16 A3015 RMK A01 T02490160  RH  058%=      5-min Rain = 0
KPA1 150151Z 12010KT 25/16 A3015 RMK A01 T02480159  RH  058%=      5-min Rain = 0
KPA1 150152Z 12009KT 25/16 A3015 RMK A01 T02480156  RH  056%=      5-min Rain = 0
KPA1 150153Z 12009KT 25/16 A3015 RMK A01 T02500156  RH  056%=      5-min Rain = 0
KPA1 150154Z 12009KT 25/16 A3015 RMK A01 T02500156  RH  056%=      5-min Rain = 0
KPA1 150155Z 12008KT 25/16 A3015 RMK A01 T02510156  RH  056%=      5-min Rain = 0
KPA1 150156Z 12008KT 25/16 A3015 RMK A01 T02510157  RH  056%=      5-min Rain = 0
KPA1 150157Z 12009KT 25/16 A3015 RMK A01 T02500158  RH  056%=      5-min Rain = 0
KPA1 150158Z 13008KT 25/16 A3015 RMK A01 T02490157  RH  057%=      5-min Rain = 0
KPA1 150159Z 13008KT 25/16 A3016 RMK A01 T02490157  RH  057%=      5-min Rain = 0
KPA1 150200Z 13009KT 25/16 A3016 RMK A01 T02490157  RH  057%=      5-min Rain = 0
KPA1 150201Z 13009KT 25/16 A3016 RMK A01 T02490158  RH  057%=      5-min Rain = 0
KPA1 150202Z 12008KT 25/16 A3015 RMK A01 T02490158  RH  057%=      5-min Rain = 0
KPA1 150203Z 12008KT 25/16 A3015 RMK A01 T02490158  RH  057%=      5-min Rain = 0
KPA1 150204Z 12008KT 25/16 A3015 RMK A01 T02490158  RH  057%=      5-min Rain = 0
KPA1 150205Z 12009KT 25/16 A3015 RMK A01 T02480159  RH  057%=      5-min Rain = 0
KPA1 150206Z 12008KT 25/16 A3015 RMK A01 T02480158  RH  057%=      5-min Rain = 0
KPA1 150207Z 12008KT 25/16 A3016 RMK A01 T02480158  RH  057%=      5-min Rain = 0
KPA1 150208Z 12008KT 25/16 A3016 RMK A01 T02470159  RH  058%=      5-min Rain = 0
KPA1 150209Z 12008KT 25/16 A3016 RMK A01 T02470159  RH  058%=      5-min Rain = 0
KPA1 150210Z 12008KT 25/16 A3016 RMK A01 T02460159  RH  058%=      5-min Rain = 0
KPA1 150211Z 12008KT 25/16 A3016 RMK A01 T02460159  RH  058%=      5-min Rain = 0
KPA1 150212Z 12008KT 25/16 A3016 RMK A01 T02460160  RH  059%=      5-min Rain = 0
KPA1 150213Z 12009KT 25/16 A3015 RMK A01 T02460160  RH  059%=      5-min Rain = 0
KPA1 150214Z 12008KT 25/16 A3015 RMK A01 T02460160  RH  059%=      5-min Rain = 0
KPA1 150215Z 12009KT 25/16 A3016 RMK A01 T02450160  RH  059%=      5-min Rain = 0
KPA1 150216Z 12009KT 25/16 A3016 RMK A01 T02450160  RH  059%=      5-min Rain = 0
KPA1 150217Z 13009KT 25/16 A3016 RMK A01 T02460159  RH  058%=      5-min Rain = 0
KPA1 150218Z 12008KT 25/16 A3016 RMK A01 T02460159  RH  058%=      5-min Rain = 0
KPA1 150219Z 13008KT 25/16 A3016 RMK A01 T02460159  RH  058%=      5-min Rain = 0
KPA1 150220Z 13008KT 25/16 A3016 RMK A01 T02460159  RH  058%=      5-min Rain = 0
KPA1 150221Z 13008KT 25/16 A3016 RMK A01 T02470161  RH  059%=      5-min Rain = 0
KPA1 150222Z 13008KT 25/16 A3016 RMK A01 T02460161  RH  059%=      5-min Rain = 0
KPA1 150223Z 13008KT 25/16 A3016 RMK A01 T02460161  RH  059%=      5-min Rain = 0
KPA1 150224Z 13008KT 25/16 A3016 RMK A01 T02450159  RH  059%=      5-min Rain = 0
KPA1 150225Z 13008KT 25/16 A3016 RMK A01 T02460159  RH  058%=      5-min Rain = 0
KPA1 150226Z 13009KT 25/16 A3016 RMK A01 T02460159  RH  058%=      5-min Rain = 0
KPA1 150227Z 12009KT 25/16 A3016 RMK A01 T02470158  RH  058%=      5-min Rain = 0
KPA1 150228Z 13008KT 25/16 A3016 RMK A01 T02470158  RH  058%=      5-min Rain = 0
KPA1 150229Z 12009KT 25/16 A3016 RMK A01 T02470158  RH  058%=      5-min Rain = 0
KPA1 150230Z 12009KT 25/16 A3016 RMK A01 T02470158  RH  058%=      5-min Rain = 0
KPA1 150231Z 12009KT 25/16 A3016 RMK A01 T02460158  RH  058%=      5-min Rain = 0
KPA1 150232Z 12009KT 25/16 A3016 RMK A01 T02460159  RH  058%=      5-min Rain = 0
KPA1 150233Z 12008KT 25/16 A3016 RMK A01 T02450159  RH  059%=      5-min Rain = 0
KPA1 150234Z 12008KT 25/16 A3016 RMK A01 T02450159  RH  059%=      5-min Rain = 0
KPA1 150235Z 12008KT 24/16 A3016 RMK A01 T02440158  RH  059%=      5-min Rain = 0
KPA1 150236Z 12008KT 25/16 A3016 RMK A01 T02450159  RH  059%=      5-min Rain = 0
KPA1 150237Z 12008KT 24/16 A3016 RMK A01 T02440159  RH  059%=      5-min Rain = 0
KPA1 150238Z 12008KT 24/16 A3016 RMK A01 T02430159  RH  059%=      5-min Rain = 0
KPA1 150239Z 12008KT 24/16 A3016 RMK A01 T02420159  RH  060%=      5-min Rain = 0
KPA1 150240Z 12008KT 24/16 A3016 RMK A01 T02420160  RH  060%=      5-min Rain = 0
KPA1 150241Z 12008KT 24/16 A3016 RMK A01 T02410160  RH  060%=      5-min Rain = 0
KPA1 150242Z 12008KT 24/16 A3016 RMK A01 T02410160  RH  060%=      5-min Rain = 0
KPA1 150243Z 12009KT 24/16 A3016 RMK A01 T02410160  RH  061%=      5-min Rain = 0
KPA1 150244Z 12009KT 24/16 A3017 RMK A01 T02410160  RH  061%=      5-min Rain = 0
KPA1 150245Z 13009KT 24/16 A3017 RMK A01 T02400159  RH  061%=      5-min Rain = 0
KPA1 150246Z 12009KT 24/16 A3017 RMK A01 T02400159  RH  061%=      5-min Rain = 0
KPA1 150247Z 12009KT 24/16 A3017 RMK A01 T02400159  RH  060%=      5-min Rain = 0
KPA1 150248Z 12009KT 24/16 A3017 RMK A01 T02400158  RH  060%=      5-min Rain = 0
KPA1 150249Z 12009KT 24/16 A3017 RMK A01 T02400158  RH  060%=      5-min Rain = 0
KPA1 150250Z 12009KT 24/16 A3017 RMK A01 T02400158  RH  060%=      5-min Rain = 0
KPA1 150251Z 12009KT 24/16 A3017 RMK A01 T02400158  RH  060%=      5-min Rain = 0
KPA1 150252Z 12009KT 24/16 A3017 RMK A01 T02400159  RH  060%=      5-min Rain = 0
KPA1 150253Z 12008KT 24/16 A3017 RMK A01 T02400159  RH  060%=      5-min Rain = 0
KPA1 150254Z 12008KT 24/16 A3017 RMK A01 T02400159  RH  060%=      5-min Rain = 0
KPA1 150255Z 12009KT 24/16 A3017 RMK A01 T02400159  RH  060%=      5-min Rain = 0
KPA1 150256Z 12008KT 24/16 A3017 RMK A01 T02400159  RH  060%=      5-min Rain = 0
KPA1 150257Z 12008KT 24/16 A3017 RMK A01 T02400159  RH  060%=      5-min Rain = 0
KPA1 150258Z 12008KT 24/16 A3017 RMK A01 T02400159  RH  060%=      5-min Rain = 0
KPA1 150259Z 12008KT 24/16 A3017 RMK A01 T02400158  RH  060%=      5-min Rain = 0
KPA1 150300Z 12009KT 24/16 A3017 RMK A01 T02410159  RH  060%=      5-min Rain = 0
KPA1 150301Z 12008KT 24/16 A3017 RMK A01 T02400159  RH  060%=      5-min Rain = 0
KPA1 150302Z 12009KT 24/16 A3017 RMK A01 T02400158  RH  060%=      5-min Rain = 0
KPA1 150303Z 12009KT 24/16 A3017 RMK A01 T02400158  RH  060%=      5-min Rain = 0
KPA1 150304Z 13009KT 24/16 A3017 RMK A01 T02400158  RH  060%=      5-min Rain = 0
KPA1 150305Z 12009KT 24/16 A3017 RMK A01 T02400159  RH  060%=      5-min Rain = 0
KPA1 150306Z 12009KT 24/16 A3017 RMK A01 T02410158  RH  060%=      5-min Rain = 0
KPA1 150307Z 12009KT 24/16 A3017 RMK A01 T02410158  RH  060%=      5-min Rain = 0
KPA1 150308Z 12009KT 24/16 A3017 RMK A01 T02410157  RH  059%=      5-min Rain = 0
KPA1 150309Z 12009KT 24/16 A3017 RMK A01 T02410158  RH  060%=      5-min Rain = 0
KPA1 150310Z 12009KT 24/16 A3017 RMK A01 T02410158  RH  060%=      5-min Rain = 0
KPA1 150311Z 13009KT 24/16 A3018 RMK A01 T02410157  RH  059%=      5-min Rain = 0
KPA1 150312Z 12008KT 24/16 A3018 RMK A01 T02410157  RH  059%=      5-min Rain = 0
KPA1 150313Z 13008KT 24/16 A3018 RMK A01 T02410157  RH  059%=      5-min Rain = 0
KPA1 150314Z 12008KT 24/16 A3018 RMK A01 T02410158  RH  060%=      5-min Rain = 0
KPA1 150315Z 12008KT 24/16 A3018 RMK A01 T02410158  RH  060%=      5-min Rain = 0
KPA1 150316Z 12009KT 24/16 A3018 RMK A01 T02410158  RH  060%=      5-min Rain = 0
KPA1 150317Z 12008KT 24/16 A3018 RMK A01 T02410158  RH  060%=      5-min Rain = 0
KPA1 150318Z 12008KT 24/16 A3018 RMK A01 T02410158  RH  060%=      5-min Rain = 0
KPA1 150319Z 12007KT 24/16 A3018 RMK A01 T02410158  RH  060%=      5-min Rain = 0
KPA1 150320Z 13007KT 24/16 A3018 RMK A01 T02410159  RH  060%=      5-min Rain = 0
KPA1 150321Z 13007KT 24/16 A3018 RMK A01 T02400159  RH  060%=      5-min Rain = 0
KPA1 150322Z 13007KT 24/16 A3018 RMK A01 T02400160  RH  061%=      5-min Rain = 0
KPA1 150323Z 13007KT 24/16 A3018 RMK A01 T02390159  RH  061%=      5-min Rain = 0
KPA1 150324Z 13007KT 24/16 A3018 RMK A01 T02380159  RH  061%=      5-min Rain = 0
KPA1 150325Z 13007KT 24/16 A3018 RMK A01 T02380160  RH  062%=      5-min Rain = 0
KPA1 150326Z 13007KT 24/16 A3018 RMK A01 T02370159  RH  062%=      5-min Rain = 0
KPA1 150327Z 12007KT 24/16 A3019 RMK A01 T02360160  RH  062%=      5-min Rain = 0
KPA1 150328Z 13008KT 24/16 A3019 RMK A01 T02350160  RH  062%=      5-min Rain = 0
KPA1 150329Z 13007KT 24/16 A3019 RMK A01 T02360160  RH  062%=      5-min Rain = 0
KPA1 150330Z 13008KT 24/16 A3019 RMK A01 T02350160  RH  063%=      5-min Rain = 0
KPA1 150331Z 13007KT 24/16 A3019 RMK A01 T02350160  RH  063%=      5-min Rain = 0
KPA1 150332Z 13008KT 23/16 A3019 RMK A01 T02340160  RH  063%=      5-min Rain = 0
KPA1 150333Z 13008KT 23/16 A3019 RMK A01 T02340160  RH  063%=      5-min Rain = 0
KPA1 150334Z 13007KT 23/16 A3019 RMK A01 T02340161  RH  063%=      5-min Rain = 0
KPA1 150335Z 13008KT 23/16 A3019 RMK A01 T02340161  RH  064%=      5-min Rain = 0
KPA1 150336Z 13008KT 23/16 A3019 RMK A01 T02340161  RH  064%=      5-min Rain = 0
KPA1 150337Z 13007KT 23/16 A3019 RMK A01 T02330162  RH  064%=      5-min Rain = 0
KPA1 150338Z 13008KT 23/16 A3019 RMK A01 T02330162  RH  064%=      5-min Rain = 0
KPA1 150339Z 13007KT 23/16 A3019 RMK A01 T02320162  RH  065%=      5-min Rain = 0
KPA1 150340Z 13007KT 23/16 A3019 RMK A01 T02320162  RH  065%=      5-min Rain = 0
KPA1 150341Z 13007KT 23/16 A3019 RMK A01 T02320162  RH  065%=      5-min Rain = 0
KPA1 150342Z 13007KT 23/16 A3019 RMK A01 T02320162  RH  065%=      5-min Rain = 0
KPA1 150343Z 13007KT 23/16 A3019 RMK A01 T02320162  RH  065%=      5-min Rain = 0
KPA1 150344Z 13007KT 23/16 A302 RMK A01 T02320163  RH  065%=      5-min Rain = 0
KPA1 150345Z 14007KT 23/16 A302 RMK A01 T02320162  RH  065%=      5-min Rain = 0
KPA1 150346Z 14007KT 23/16 A302 RMK A01 T02320162  RH  065%=      5-min Rain = 0
KPA1 150347Z 14006KT 23/16 A302 RMK A01 T02320163  RH  065%=      5-min Rain = 0
KPA1 150348Z 14007KT 23/16 A302 RMK A01 T02310164  RH  066%=      5-min Rain = 0
KPA1 150349Z 13006KT 23/16 A302 RMK A01 T02300164  RH  066%=      5-min Rain = 0
KPA1 150350Z 14006KT 23/16 A302 RMK A01 T02290163  RH  066%=      5-min Rain = 0
KPA1 150351Z 14006KT 23/16 A302 RMK A01 T02290163  RH  066%=      5-min Rain = 0
KPA1 150352Z 13006KT 23/16 A302 RMK A01 T02290163  RH  066%=      5-min Rain = 0
KPA1 150353Z 14006KT 23/16 A302 RMK A01 T02280163  RH  067%=      5-min Rain = 0
KPA1 150354Z 13006KT 23/16 A302 RMK A01 T02280163  RH  067%=      5-min Rain = 0
KPA1 150355Z 13007KT 23/16 A302 RMK A01 T02280163  RH  067%=      5-min Rain = 0
KPA1 150356Z 13006KT 23/16 A302 RMK A01 T02280163  RH  067%=      5-min Rain = 0
KPA1 150357Z 14006KT 23/16 A302 RMK A01 T02270163  RH  067%=      5-min Rain = 0
KPA1 150358Z 13006KT 23/16 A302 RMK A01 T02270163  RH  067%=      5-min Rain = 0
KPA1 150359Z 13006KT 23/16 A302 RMK A01 T02270163  RH  067%=      5-min Rain = 0
KPA1 150400Z 13006KT 23/16 A302 RMK A01 T02270164  RH  067%=      5-min Rain = 0
KPA1 150401Z 13006KT 23/16 A302 RMK A01 T02260164  RH  068%=      5-min Rain = 0
KPA1 150402Z 13006KT 23/16 A302 RMK A01 T02260164  RH  068%=      5-min Rain = 0
KPA1 150403Z 13006KT 23/16 A302 RMK A01 T02250164  RH  068%=      5-min Rain = 0
KPA1 150404Z 13006KT 23/16 A302 RMK A01 T02250164  RH  069%=      5-min Rain = 0
KPA1 150405Z 13006KT 22/16 A302 RMK A01 T02240164  RH  069%=      5-min Rain = 0
KPA1 150406Z 13006KT 22/16 A302 RMK A01 T02240164  RH  069%=      5-min Rain = 0
KPA1 150407Z 13007KT 22/16 A302 RMK A01 T02240164  RH  069%=      5-min Rain = 0
KPA1 150408Z 13007KT 22/16 A302 RMK A01 T02240163  RH  068%=      5-min Rain = 0
KPA1 150409Z 13008KT 23/16 A302 RMK A01 T02250162  RH  067%=      5-min Rain = 0
KPA1 150410Z 13007KT 23/16 A302 RMK A01 T02260162  RH  067%=      5-min Rain = 0
KPA1 150411Z 14008KT 23/16 A302 RMK A01 T02270162  RH  066%=      5-min Rain = 0
KPA1 150412Z 14009KT 23/16 A302 RMK A01 T02280161  RH  066%=      5-min Rain = 0
KPA1 150413Z 14008KT 23/16 A302 RMK A01 T02290161  RH  065%=      5-min Rain = 0
KPA1 150414Z 13008KT 23/16 A302 RMK A01 T02300161  RH  065%=      5-min Rain = 0
KPA1 150415Z 13008KT 23/16 A302 RMK A01 T02300161  RH  065%=      5-min Rain = 0
KPA1 150416Z 13007KT 23/16 A302 RMK A01 T02310160  RH  065%=      5-min Rain = 0
KPA1 150417Z 13008KT 23/16 A302 RMK A01 T02310161  RH  065%=      5-min Rain = 0
KPA1 150418Z 13007KT 23/16 A302 RMK A01 T02310161  RH  065%=      5-min Rain = 0
KPA1 150419Z 13006KT 23/16 A302 RMK A01 T02300162  RH  065%=      5-min Rain = 0
KPA1 150420Z 13007KT 23/16 A302 RMK A01 T02290162  RH  066%=      5-min Rain = 0
KPA1 150421Z 13007KT 23/16 A302 RMK A01 T02290162  RH  066%=      5-min Rain = 0
KPA1 150422Z 13007KT 23/16 A3021 RMK A01 T02280162  RH  066%=      5-min Rain = 0
KPA1 150423Z 13007KT 23/16 A3021 RMK A01 T02280162  RH  066%=      5-min Rain = 0
KPA1 150424Z 13007KT 23/16 A3021 RMK A01 T02280162  RH  067%=      5-min Rain = 0
KPA1 150425Z 13007KT 23/16 A3021 RMK A01 T02270163  RH  067%=      5-min Rain = 0
KPA1 150426Z 13007KT 23/16 A3021 RMK A01 T02270163  RH  067%=      5-min Rain = 0
KPA1 150427Z 13007KT 23/16 A3021 RMK A01 T02270163  RH  067%=      5-min Rain = 0
KPA1 150428Z 13007KT 23/16 A3021 RMK A01 T02260163  RH  068%=      5-min Rain = 0
KPA1 150429Z 13007KT 23/16 A3021 RMK A01 T02260164  RH  068%=      5-min Rain = 0
KPA1 150430Z 13008KT 23/16 A3021 RMK A01 T02260163  RH  068%=      5-min Rain = 0
KPA1 150431Z 13008KT 23/16 A3021 RMK A01 T02270163  RH  067%=      5-min Rain = 0
KPA1 150432Z 13007KT 23/16 A3021 RMK A01 T02270162  RH  067%=      5-min Rain = 0
KPA1 150433Z 13009KT 23/16 A3021 RMK A01 T02280162  RH  066%=      5-min Rain = 0
KPA1 150434Z 13008KT 23/16 A3021 RMK A01 T02290162  RH  066%=      5-min Rain = 0
KPA1 150435Z 13008KT 23/16 A3021 RMK A01 T02300163  RH  066%=      5-min Rain = 0
KPA1 150436Z 13008KT 23/16 A3021 RMK A01 T02300162  RH  065%=      5-min Rain = 0
KPA1 150437Z 13008KT 23/16 A3021 RMK A01 T02310162  RH  065%=      5-min Rain = 0
KPA1 150438Z 13008KT 23/16 A3021 RMK A01 T02310162  RH  065%=      5-min Rain = 0
KPA1 150439Z 13008KT 23/16 A3021 RMK A01 T02310162  RH  065%=      5-min Rain = 0
KPA1 150440Z 13008KT 23/16 A3021 RMK A01 T02310162  RH  065%=      5-min Rain = 0
KPA1 150441Z 13008KT 23/16 A3021 RMK A01 T02310162  RH  065%=      5-min Rain = 0
KPA1 150442Z 13008KT 23/16 A3021 RMK A01 T02310163  RH  066%=      5-min Rain = 0
KPA1 150443Z 13008KT 23/16 A3021 RMK A01 T02300162  RH  066%=      5-min Rain = 0
KPA1 150444Z 13008KT 23/16 A3021 RMK A01 T02300163  RH  066%=      5-min Rain = 0
KPA1 150445Z 13009KT 23/16 A3021 RMK A01 T02300162  RH  065%=      5-min Rain = 0
KPA1 150446Z 14008KT 23/16 A3021 RMK A01 T02300162  RH  065%=      5-min Rain = 0
KPA1 150447Z 14008KT 23/16 A3021 RMK A01 T02300162  RH  065%=      5-min Rain = 0
KPA1 150448Z 13008KT 23/16 A3021 RMK A01 T02300162  RH  066%=      5-min Rain = 0
KPA1 150449Z 13008KT 23/16 A3021 RMK A01 T02300162  RH  065%=      5-min Rain = 0
KPA1 150450Z 13009KT 23/16 A3021 RMK A01 T02300162  RH  065%=      5-min Rain = 0
KPA1 150451Z 13009KT 23/16 A3021 RMK A01 T02300162  RH  065%=      5-min Rain = 0
KPA1 150452Z 13008KT 23/16 A3021 RMK A01 T02300162  RH  065%=      5-min Rain = 0
KPA1 150453Z 13009KT 23/16 A3021 RMK A01 T02310162  RH  065%=      5-min Rain = 0
KPA1 150454Z 13009KT 23/16 A3021 RMK A01 T02310161  RH  065%=      5-min Rain = 0
KPA1 150455Z 13008KT 23/16 A3021 RMK A01 T02320162  RH  065%=      5-min Rain = 0
KPA1 150456Z 13009KT 23/16 A3021 RMK A01 T02320162  RH  065%=      5-min Rain = 0
KPA1 150457Z 13009KT 23/16 A3021 RMK A01 T02320162  RH  065%=      5-min Rain = 0
KPA1 150458Z 13009KT 23/16 A3021 RMK A01 T02320162  RH  065%=      5-min Rain = 0
KPA1 150459Z 13009KT 23/16 A3021 RMK A01 T02320162  RH  065%=      5-min Rain = 0

Page generated in 0.1182 seconds.